YJR
YJRResultsBanner
YJR

Hyner View Trail Challenge

Overall Finish List

April 23, 2016



Hyner 50K

Hyner 25K

Place Name City Bib No Age Gender Age Group Total Time Pace
1 MATT LIPSEY KERSEY PA 824 26 M 1 20-29 2:12:17.92 7:58/M
2 ERIC MARSHALL STATE COLLEGE PA 836 32 M 1 30-39 2:18:26.10 8:20/M
3 JOHN JOHNSON ULSTER PA 758 43 M 1 40-49 2:24:30.77 8:42/M
4 JEFF SMUCKER CENTRE HALL PA 991 50 M 1 50-59 2:32:12.78 9:10/M
5 MATT BYRNE SCRANTON PA 577 40 M 2 40-49 2:34:14.79 9:17/M
6 ETHAN SWOPE PITTSBURGH PA 1023 26 M 2 20-29 2:35:35.90 9:22/M
7 MIKE HASTINGS LOCK HAVEN PA 725 31 M 2 30-39 2:35:49.00 9:23/M
8 TIM HERB WHITEHALL PA 732 43 M 3 40-49 2:35:52.34 9:23/M
9 DENNIS YONKIN LEWISBURG PA 1072 52 M 2 50-59 2:37:15.84 9:28/M
10 SARAH KEYES LAKE PLACID NY 235 31 F 1 30-39 2:37:40.76 9:30/M
11 SAYARD TANIS LEWISBURG PA 444 34 F 2 30-39 2:40:18.59 9:39/M
12 MICHAEL REAGER LEBANON PA 920 38 M 3 30-39 2:43:16.10 9:50/M
13 ANDREW KREBS STATE COLLEGE PA 794 39 M 4 30-39 2:43:53.47 9:52/M
14 COREY HUDSON TYRONE PA 742 34 M 5 30-39 2:44:15.98 9:54/M
15 MEIRA MINARD STATE COLLEGE PA 306 42 F 1 40-49 2:44:43.63 9:55/M
16 TONY KORCH NANTICOKE PA 789 56 M 3 50-59 2:48:20.57 10:08/M
17 JUSTIN BEATTY S. WILLIAMSPORT PA 536 37 M 6 30-39 2:48:30.33 10:09/M
18 MARK FISHER MIFFLIN PA 668 29 M 3 20-29 2:49:50.63 10:14/M
19 JOSH DOUGAN PENNSVILLE NJ 636 27 M 4 20-29 2:50:04.67 10:15/M
20 CAROLE DUDOKOVICH PORT MATILDA PA 114 49 F 2 40-49 2:50:31.63 10:16/M
21 ROBBY BRECKINRIDGE PITTSBURGH PA 564 24 M 5 20-29 2:51:00.12 10:18/M
22 JON GABRIELSEN DANVILLE PA 680 44 M 4 40-49 2:51:12.21 10:19/M
23 BRETT SHELTON CORNING NY 974 44 M 5 40-49 2:51:51.87 10:21/M
24 MATTHEW KING NARVON PA 779 26 M 6 20-29 2:52:05.99 10:22/M
25 AJ LABARCA LIMA NY 800 17 M 1 1-19 2:52:29.50 10:23/M
26 SHAWN ZIMMERMAN DENVER PA 1078 29 M 7 20-29 2:52:43.91 10:24/M
27 JAKE STAMEY WINFIELD PA 1003 30 M 7 30-39 2:53:14.60 10:26/M
28 RANDY LYBACK DUPONT PA 831 46 M 6 40-49 2:53:29.38 10:27/M
29 JOHN LEWIS WINFIELD PA 817 44 M 7 40-49 2:55:17.88 10:34/M
30 MICHAEL MONAHAN EAST HAMPTON NY 867 30 M 8 30-39 2:55:40.61 10:35/M
31 GARY EHRMANN PERKASIE PA 649 31 M 9 30-39 2:56:13.13 10:37/M
32 COLE MORTELLARO VENETIA PA 874 33 M 10 30-39 2:56:31.88 10:38/M
33 LEROY KOPP ST. MARYS PA 788 32 M 11 30-39 2:56:41.63 10:39/M
34 STEVE TEMPLIN MUNCY PA 1027 43 M 8 40-49 2:56:54.22 10:39/M
35 MICHAEL DINSMORE HUNTINGDON PA 629 33 M 12 30-39 2:57:43.88 10:42/M
36 MICHAEL REED WILLIAMSPORT PA 923 44 M 9 40-49 2:57:55.81 10:43/M
37 MICHAEL HABALAR WILLIAMSPORT PA 714 42 M 10 40-49 2:58:00.55 10:43/M
38 ANDREW BOGUS STATE COLLEGE PA 561 26 M 8 20-29 2:59:09.71 10:48/M
39 CHEYENNE ALBERT MORRISDALE PA 1081 26 F 1 20-29 2:59:18.64 10:48/M
40 PAUL CANTAGALLO PHILADELPHIA PA 579 37 M 13 30-39 2:59:50.90 10:50/M
41 MARK RISSO SPRING MILLS PA 935 35 M 14 30-39 3:00:19.50 10:52/M
42 CHRIS COBLE STATE COLLEGE PA 599 33 M 15 30-39 3:01:53.39 10:57/M
43 ANDRZEJ TRELA ALLENTOWN PA 1030 36 M 16 30-39 3:03:08.89 11:02/M
44 LIAM MCGARVEY COGAN STATION PA 1083 19 M 2 1-19 3:03:10.10 11:02/M
45 ALEXANDRA MILLER BELLEFONTE PA 298 27 F 2 20-29 3:03:31.61 11:03/M
46 JESSICA ZOZOS MILL HALL PA 508 26 F 3 20-29 3:03:39.54 11:04/M
47 SEAN CLOUSER WILLIAMSPORT PA 1087 42 M 11 40-49 3:03:43.38 11:04/M
48 JAKE DODGE WILLIAMSPORT PA 633 32 M 17 30-39 3:04:23.59 11:06/M
49 ANDREW PIOTROWSKI WARMINSTER PA 907 28 M 9 20-29 3:05:04.75 11:09/M
50 SIMON PARROTT RENO NV 895 38 M 18 30-39 3:05:10.40 11:09/M
51 JERRY BLASKO DANVILLE PA 555 44 M 12 40-49 3:05:22.84 11:10/M
52 JENNY RODGERS LOCK HAVEN PA 377 30 F 3 30-39 3:05:48.98 11:12/M
53 LOUIS LEVESQUE OWEGO NY 814 15 M 3 1-19 3:06:11.02 11:13/M
54 M SUDAK MARS PA 1018 37 M 19 30-39 3:06:28.53 11:14/M
55 TOM KALBAUGH ALLISON PARK PA 762 47 M 13 40-49 3:06:32.39 11:14/M
56 MAGGIE GUTERL WEST CHESTER PA 179 35 F 4 30-39 3:07:00.59 11:16/M
57 JODY DEWALD MILLVILLE PA 624 47 M 14 40-49 3:07:44.58 11:19/M
58 VINCENT CORSO PORT MATILDA PA 606 36 M 20 30-39 3:08:00.85 11:20/M
59 BRIAN LUBENOW BIRDSBORO PA 829 37 M 21 30-39 3:08:19.66 11:21/M
60 JOSEPH EATON LOCK HAVEN PA 643 43 M 15 40-49 3:08:28.23 11:21/M
61 THOMAS SAGINAK FINDLEY LAKE NY 949 61 M 1 60-99 3:08:46.63 11:22/M
62 JOE HEINTZ PINE GROVE MILLS PA 729 38 M 22 30-39 3:08:57.41 11:23/M
63 SPENCER WEAVER SHENANDOAH PA 1051 24 M 10 20-29 3:09:18.34 11:24/M
64 DUANE SERPENTINE WEST CHESTER PA 967 39 M 23 30-39 3:09:30.66 11:25/M
65 GREG KELLENBERGER MOHNTON PA 767 40 M 16 40-49 3:09:54.16 11:26/M
66 JACK INSCOE RICHMOND VA 749 32 M 24 30-39 3:10:08.61 11:27/M
67 JAKE CLEMENTS STATE COLLEGE PA 596 36 M 25 30-39 3:10:30.33 11:29/M
68 DARYL LEHMAN II RED LION PA 809 40 M 17 40-49 3:10:35.61 11:29/M
69 JIM GOLEMBESKI WILLIAMSPORT PA 700 47 M 18 40-49 3:10:35.61 11:29/M
70 GEOFF OLDHAM LEWISBURG PA 890 39 M 26 30-39 3:11:26.30 11:32/M
71 SEAN CRAIG DUBOIS PA 609 39 M 27 30-39 3:11:32.91 11:32/M
72 KENNETH HURD SPRING MILLS PA 745 50 M 4 50-59 3:12:56.82 11:37/M
73 ALAN LICHTENWALNER EMPORIUM PA 819 51 M 5 50-59 3:13:12.24 11:38/M
74 KINDRA ASCHENBRENNER SAINT MARYS PA 9 23 F 4 20-29 3:13:15.42 11:38/M
75 LARIE HALL MORRISDALE PA 183 47 F 3 40-49 3:13:27.67 11:39/M
76 ANDY BELL YORK HAVEN PA 539 43 M 19 40-49 3:14:53.23 11:44/M
77 KERRY BELL CONNELLSVILLE PA 540 31 M 28 30-39 3:15:46.31 11:48/M
78 MICHAEL SCHUBACH MILL HALL PA 961 44 M 20 40-49 3:16:02.13 11:49/M
79 GARY LAMPMAN RIDGWAY PA 803 51 M 6 50-59 3:16:07.24 11:49/M
80 MATTHEW SOROKA BELLEFONTE PA 1000 38 M 29 30-39 3:16:50.57 11:51/M
81 ROBBIE RISLEY OLYPHANT PA 934 33 M 30 30-39 3:17:18.87 11:53/M
82 ERIK RYAN CLYMER NY 946 39 M 31 30-39 3:17:32.57 11:54/M
83 TIMOTHY NASH OREFIELD PA 879 47 M 21 40-49 3:18:41.75 11:58/M
84 BROCK RIDER SPRING MILLS PA 930 37 M 32 30-39 3:19:37.82 12:02/M
85 JEFFREY LOVELL S. WILLIAMSPORT PA 828 52 M 7 50-59 3:19:43.57 12:02/M
86 TOM MACK ARMAGH PA 833 39 M 33 30-39 3:19:47.57 12:02/M
87 SCOTT LEWIS HUGHESVILLE PA 818 41 M 22 40-49 3:20:07.88 12:03/M
88 JEFF GUGINO STATE COLLEGE PA 713 51 M 8 50-59 3:20:21.82 12:04/M
89 TYLER WAGNER MONTGOMERY PA 1044 27 M 11 20-29 3:20:41.94 12:05/M
90 HAYLEY WEYHE STATE COLLEGE PA 484 41 F 4 40-49 3:20:43.80 12:05/M
91 CRAIG FLEMING STATE COLLEGE PA 670 44 M 23 40-49 3:20:44.58 12:06/M
92 GREGG SAUNDERS WILLIAMSPORT PA 951 34 M 34 30-39 3:21:05.50 12:07/M
93 PORT HABALAR WILLIAMSPORT PA 715 14 M 4 1-19 3:21:13.58 12:07/M
94 RACER X BELLEFONTE PA 1071 48 M 24 40-49 3:22:03.69 12:10/M
95 AMANDA WILCZYNSKI MAYFIELD PA 491 33 F 5 30-39 3:22:08.78 12:11/M
96 WILLIAM SCHLORFF LOCK HAVEN PA 960 52 M 9 50-59 3:22:36.15 12:12/M
97 SHAWN BROWN ROME PA 568 40 M 25 40-49 3:22:56.24 12:13/M
98 ELIZABETH SOROKA BELLEFONTE PA 420 38 F 6 30-39 3:23:08.33 12:14/M
99 JASON MAZZULLO WILLIAMSPORT PA 838 38 M 35 30-39 3:23:14.30 12:15/M
100 REED WILLAR MILL HALL PA 1059 18 M 5 1-19 3:23:15.72 12:15/M
 
Place Name City Bib No Age Gender Age Group Total Time Pace
101 MICHELE GALLEN SHILLINGTON 1085 27 F 5 20-29 3:23:24.26 12:15/M
102 CHAD FEERRAR LOCK HAVEN PA 660 30 M 36 30-39 3:23:55.30 12:17/M
103 MARTIN STATLER DUNCANSVILLE PA 1005 42 M 26 40-49 3:24:01.80 12:17/M
104 RON WIGHTMAN WELLSVILLE NY 1057 67 M 2 60-99 3:24:39.89 12:20/M
105 ANDREW MUSSELMAN WILLOW STREET PA 877 29 M 12 20-29 3:24:54.59 12:21/M
106 PATRICK SACHSE ALTOONA PA 948 32 M 37 30-39 3:25:27.81 12:23/M
107 MICHAEL GETZ GIRARD PA 691 55 M 10 50-59 3:25:46.84 12:24/M
108 LAURA HELLER COGAN STATION PA 197 34 F 7 30-39 3:26:08.13 12:25/M
109 JEREMY TROUT DENVER PA 1032 45 M 27 40-49 3:26:12.18 12:25/M
110 ELAM KING STRASBURG PA 776 31 M 38 30-39 3:26:19.84 12:26/M
111 GARRETT KERSTETTER LEWISBURG PA 770 33 M 39 30-39 3:26:33.96 12:27/M
112 JEFF LYNN SLIPPERY ROCK PA 832 48 M 28 40-49 3:27:00.87 12:28/M
113 TIM FULLER BATH NY 678 48 M 29 40-49 3:27:04.76 12:28/M
114 MARC LINTAL PORT MATILDA PA 821 38 M 40 30-39 3:27:08.59 12:29/M
115 JIM VANDISH OSWEGO NY 1038 45 M 30 40-49 3:27:09.82 12:29/M
116 REBECCA WHITESELL BELLEFONTE PA 487 54 F 1 50-59 3:27:43.71 12:31/M
117 NATHAN SNAVELY ZION GROVE PA 992 38 M 41 30-39 3:27:43.84 12:31/M
118 JODY WEIDNER GILLETT PA 1052 51 M 11 50-59 3:27:44.32 12:31/M
119 TRACY WRIGHT WAVERLY NY 500 41 F 5 40-49 3:27:44.84 12:31/M
120 FAITH PIOTROWSKI WARMINSTER PA 343 27 F 6 20-29 3:27:47.56 12:31/M
121 RANDY MOORE STATE COLLEGE PA 870 58 M 12 50-59 3:28:34.84 12:34/M
122 SHELDON HORST LANCASTER PA 739 34 M 42 30-39 3:29:46.84 12:38/M
123 GARY BUCHAN PITTSBURGH PA 571 58 M 13 50-59 3:30:20.35 12:40/M
124 BOB JACOBS PORT MATILDA PA 751 56 M 14 50-59 3:30:41.15 12:42/M
125 TROY MILLER JULIAN PA 859 46 M 31 40-49 3:30:43.84 12:42/M
126 JULIE PENTICO WILLIAMSPORT PA 340 48 F 6 40-49 3:30:50.35 12:42/M
127 JEREMY KNOEBEL SOUTH WILLIAMSPORT PA 785 41 M 32 40-49 3:30:54.80 12:42/M
128 ERIC WOELKERS BIRDSBORO PA 1065 27 M 13 20-29 3:30:57.35 12:42/M
129 WESTON GRAYBILL MILL HALL PA 707 22 M 14 20-29 3:31:14.85 12:43/M
130 BARRY ANDRULONIS DUBOIS PA 519 48 M 33 40-49 3:31:22.80 12:44/M
131 SCOTT SHEEDER STATE COLLEGE PA 973 41 M 34 40-49 3:31:42.28 12:45/M
132 MALARIE YODER SPRING MILLS PA 502 17 F 1 1-19 3:31:42.86 12:45/M
133 JESSE GREENAWALT LEWISBURG PA 709 48 M 35 40-49 3:32:21.40 12:48/M
134 BLAKE COHEN LOCK HAVEN PA 600 33 M 43 30-39 3:32:28.13 12:48/M
135 MADELYN SAUNDERS LANCASTER PA 384 28 F 7 20-29 3:32:40.47 12:49/M
136 JOSH ROBERTS ELVERSON PA 937 38 M 44 30-39 3:32:47.78 12:49/M
137 ANGE HORST LANCASTER PA 208 33 F 8 30-39 3:32:49.40 12:49/M
138 DAVE SNYDER CLAYMONT DE 993 28 M 15 20-29 3:33:00.98 12:50/M
139 SOPHORN CHOUP PHILADELPHIA PA 78 36 F 9 30-39 3:33:31.35 12:52/M
140 CLINT MCCASLIN JULIAN PA 1079 19 M 6 1-19 3:34:03.29 12:54/M
141 DANIEL FLICKINGER PHILADELPHIA PA 671 44 M 36 40-49 3:34:28.21 12:55/M
142 MATTHEW EVANS MILLVILLE PA 654 40 M 37 40-49 3:34:44.22 12:56/M
143 MATTHEW LAWTON PORT ALLEGANY PA 808 42 M 38 40-49 3:34:49.10 12:56/M
144 GREG MEYERS WASHINGTON DC 848 38 M 45 30-39 3:34:59.86 12:57/M
145 STEVE WILLIG LANCASTER PA 1060 44 M 39 40-49 3:35:25.43 12:59/M
146 MICHELE BROWN TUNKHANNOCK PA 58 45 F 7 40-49 3:36:04.86 13:01/M
147 PATRICK MOORE SCHWENKSVILLE PA 869 49 M 40 40-49 3:36:05.58 13:01/M
148 NATHAN KING CENTRE HALL PA 781 42 M 41 40-49 3:36:36.26 13:03/M
149 STEVE THOMPSON FREDERICK MD 1028 44 M 42 40-49 3:36:44.37 13:03/M
150 NORMAN RODRIGUEZ PHILADELPHIA PA 939 38 M 46 30-39 3:36:49.91 13:04/M
151 LONNIE SNYDER RICHFIELD PA 994 44 M 43 40-49 3:37:06.61 13:05/M
152 KEVIN KEATING NEW YORK NY 765 37 M 47 30-39 3:37:11.62 13:05/M
153 GREG SCRITCHFIELD NEW HOLLAND PA 964 40 M 44 40-49 3:37:17.58 13:05/M
154 TAYLOR STOUDNOUR HOLLIDAYSBURG PA 439 18 F 2 1-19 3:37:32.97 13:06/M
155 ELEANOR HOPKINS WASHINGTON DC 206 37 F 10 30-39 3:37:43.35 13:07/M
156 MATT HOPKINS WASHINGTON DC 738 38 M 48 30-39 3:37:43.73 13:07/M
157 JOANNE VAN HORN DOUGLASSVILLE PA 455 51 F 2 50-59 3:38:03.34 13:08/M
158 TRAVIS DIXON PHILIPSBURG PA 631 37 M 49 30-39 3:38:21.92 13:09/M
159 BRADLEY SMAIL LEMONT PA 986 51 M 15 50-59 3:38:24.12 13:09/M
160 ABBY MCCARTHY ROCHESTER NY 286 35 F 11 30-39 3:38:25.97 13:09/M
161 ALLISON SAUNDERS WILLIAMSPORT PA 383 34 F 12 30-39 3:39:51.85 13:15/M
162 MIKE FINKBINER BERNVILLE PA 666 38 M 50 30-39 3:40:25.32 13:17/M
163 CLIFF CUMMINGS WASHINGTON DC 613 30 M 51 30-39 3:40:41.53 13:18/M
164 SUMER BEATTY SOUTH WILLIAMSPORT PA 19 35 F 13 30-39 3:41:01.12 13:19/M
165 CHRISTOPHER LAUDO STRASBURG PA 806 48 M 45 40-49 3:41:08.15 13:19/M
166 STEFANIE FEDDER POTTSTOWN PA 133 34 F 14 30-39 3:41:08.71 13:19/M
167 JENNIFER HOUSEKNECHT WILLIAMSPORT PA 209 37 F 15 30-39 3:41:15.12 13:20/M
168 KATAPSKI PETE SCOTT TOWNSHIP PA 900 56 M 16 50-59 3:41:27.25 13:20/M
169 KARL MILLER TOWANDA PA 857 57 M 17 50-59 3:41:30.90 13:21/M
170 BRIAN HEMAK JERMYN PA 730 43 M 46 40-49 3:41:38.37 13:21/M
171 GREG WALTERMIRE LEAVITTSBURG OH 1047 51 M 18 50-59 3:41:45.12 13:22/M
172 MARK BERGSTROM STATE COLLEGE PA 547 55 M 19 50-59 3:42:05.89 13:23/M
173 WESLEY ATKINSON MILL HALL PA 525 17 M 7 1-19 3:42:06.62 13:23/M
174 LEE ARBOGAST MUNCY PA 522 35 M 52 30-39 3:42:09.54 13:23/M
175 CODY HAND RENOVO PA 720 16 M 8 1-19 3:42:28.25 13:24/M
176 MATT CROYLE HILLIARD OH 611 40 M 47 40-49 3:43:15.95 13:27/M
177 JAMIE FELKER SPRING MILLS PA 661 44 M 48 40-49 3:43:53.70 13:29/M
178 IVAN FISHER STRASBURG PA 667 27 M 16 20-29 3:45:12.86 13:34/M
179 JENNIFER MORELLI RIDGWAY PA 311 48 F 8 40-49 3:45:40.59 13:36/M
180 BEN TOLTON BOALSBURG PA 1029 36 M 53 30-39 3:46:01.36 13:37/M
181 DAMON WAGNER RENOVO PA 1042 36 M 54 30-39 3:46:04.39 13:37/M
182 RICK MICHAEL MILLERSBURG PA 849 56 M 20 50-59 3:46:05.88 13:37/M
183 KRISTEN HAUG JAMISON PA 191 24 F 8 20-29 3:46:12.91 13:38/M
184 JOSH SITAS WYALUSING PA 982 35 M 55 30-39 3:46:14.13 13:38/M
185 BRIAN KUNKLE SAYRE PA 796 34 M 56 30-39 3:46:45.81 13:40/M
186 JACQUELINE SCANLON ONEONTA NY 386 38 F 16 30-39 3:46:56.36 13:40/M
187 JOSHUA HADEN HAZLETON PA 717 35 M 57 30-39 3:46:57.74 13:40/M
188 STEPHANIE LOVELL COGAN STATION PA 270 45 F 9 40-49 3:47:03.63 13:41/M
189 KEVIN PECHT BEECH CREEK PA 897 35 M 58 30-39 3:47:06.10 13:41/M
190 CONNOR SCHALL LOCK HAVEN PA 954 16 M 9 1-19 3:47:17.26 13:42/M
191 ED EARLEY WILLIAMSPORT PA 642 56 M 21 50-59 3:47:21.13 13:42/M
192 BRIAN JOHNSON PORT MATILDA PA 755 39 M 59 30-39 3:47:22.13 13:42/M
193 SAMUEL PROBST LOCK HAVEN PA 912 46 M 49 40-49 3:47:26.39 13:42/M
194 JEFF LISTER JERSEY SHORE PA 825 63 M 3 60-99 3:48:19.35 13:45/M
195 BRANDON ENGLAND WILLIAMSBURG PA 650 33 M 60 30-39 3:48:22.14 13:45/M
196 DEREK WALLEN BETHLEHEM PA 1046 31 M 61 30-39 3:48:37.14 13:46/M
197 HEIDI HEMAK JERMYN PA 199 43 F 10 40-49 3:48:58.70 13:48/M
198 LAUREN EARLEY WILLIAMSPORT PA 119 16 F 3 1-19 3:49:01.64 13:48/M
199 BOB BAUER BROCKWAY PA 534 43 M 50 40-49 3:49:26.91 13:49/M
200 ERIN GOCEK WILLIAMSPORT PA 163 35 F 17 30-39 3:49:32.39 13:50/M
 
Place Name City Bib No Age Gender Age Group Total Time Pace
201 ADAM HECKROTH PERKIOMENVILLE PA 727 34 M 62 30-39 3:49:49.21 13:51/M
202 NEVIN ATKINSON MILL HALL PA 524 16 M 10 1-19 3:50:12.73 13:52/M
203 KELLY KURZEJEWSKI TROUT RUN PA 251 39 F 18 30-39 3:50:27.36 13:53/M
204 JIM ARNOLD MONTOURSVILLE PA 523 54 M 22 50-59 3:50:31.14 13:53/M
205 STEVE SNYDER JENKINTOWN PA 996 30 M 63 30-39 3:50:47.21 13:54/M
206 JOHN EYSTER YORK PA 655 56 M 23 50-59 3:50:47.62 13:54/M
207 MICHELE PROBST LOCK HAVEN PA 356 46 F 11 40-49 3:50:54.14 13:55/M
208 JASON KING PORT ROYAL PA 778 28 M 17 20-29 3:52:12.26 13:59/M
209 ANDREW LEVASSEUR RICHMOND VA 813 40 M 51 40-49 3:52:42.31 14:01/M
210 ELIZABETH TOBIN WESTWOOD NJ 448 44 F 12 40-49 3:52:49.60 14:02/M
211 SHANNON OAKES ELMIRA NY 1088 39 F 19 30-39 3:53:05.63 14:02/M
212 MIKE BAUER 1080 44 M 52 40-49 3:53:33.90 14:04/M
213 KEVIN HIRLINGER MILL HALL PA 736 56 M 24 50-59 3:53:37.40 14:04/M
214 ELENA DAISLEY COUDERSPORT PA 93 41 F 13 40-49 3:53:42.34 14:05/M
215 TIM ANDRULONIS DUBOIS PA 520 58 M 25 50-59 3:54:07.15 14:06/M
216 MICAH SCHALL LOCK HAVEN PA 956 14 M 11 1-19 3:54:20.88 14:07/M
217 MARK CHILTON COOPERSBURG PA 590 41 M 53 40-49 3:54:24.73 14:07/M
218 MARTHA BRALKOWSKI RIDGWAY PA 52 31 F 20 30-39 3:54:44.90 14:08/M
219 LARRY FENNESSEY STATE COLLEGE PA 662 55 M 26 50-59 3:55:01.49 14:09/M
220 GILLIAN SOLES PITTSFORD NY 418 37 F 21 30-39 3:55:05.98 14:10/M
221 AIMEE KEMICK RIDGWAY PA 226 52 F 3 50-59 3:56:11.40 14:14/M
222 HILARY COONEY AUSTIN PA 88 31 F 22 30-39 3:56:15.99 14:14/M
223 DAMIAN SKAL CHICORA PA 984 43 M 54 40-49 3:56:30.32 14:15/M
224 LONI RISLEY OLYPHANT PA 374 35 F 23 30-39 3:56:39.63 14:15/M
225 BILL SERAFIN CLYMER PA 965 66 M 4 60-99 3:57:01.55 14:17/M
226 DANIEL DEMETER BELVIDERE NJ 622 50 M 27 50-59 3:57:14.66 14:17/M
227 AMY EPPLEY COUDERSPORT PA 125 28 F 9 20-29 3:57:24.13 14:18/M
228 SETH HIBBS HATBORO PA 734 24 M 18 20-29 3:57:34.97 14:19/M
229 BARRON TAYLOR THREE SPRINGS PA 1026 44 M 55 40-49 3:57:51.90 14:20/M
230 ALEX ROBERTS PHOENIXVILLE PA 936 39 M 64 30-39 3:58:04.41 14:20/M
231 JEFFREY KRAUSS READING PA 793 33 M 65 30-39 3:58:07.15 14:21/M
232 HEATHER HEALY CRANBERRY TOWNSHIP PA 193 46 F 14 40-49 3:58:13.28 14:21/M
233 BRYAN BENDER GRATZ PA 543 33 M 66 30-39 3:58:21.41 14:22/M
234 ROB GOLDER BLOOMSBURG PA 699 49 M 56 40-49 3:58:22.44 14:22/M
235 JOSH LAPP NEW HOLLAND PA 805 15 M 12 1-19 3:58:29.36 14:22/M
236 ANTHONY ANTENUCCI MECHANICSBURG PA 521 46 M 57 40-49 3:58:31.39 14:22/M
237 TIM SWISHER MECHANICSBURG PA 1022 41 M 58 40-49 3:58:32.62 14:22/M
238 KEVIN DIFLORIO HORSHAM PA 628 23 M 19 20-29 3:58:39.74 14:23/M
239 MADDY GORINI MONTOURSVILLE PA 167 18 F 4 1-19 3:58:46.91 14:23/M
240 BRENDAN DELANY WASHINGTON DC 621 37 M 67 30-39 3:58:55.54 14:24/M
241 DURBOIS ZIM FAIRFAX VA 1076 55 M 28 50-59 3:59:02.42 14:24/M
242 OLIVIA DESSER WILLIAMSPORT PA 102 24 F 10 20-29 3:59:09.60 14:24/M
243 TANIA LEZAK MILAN PA 266 38 F 24 30-39 3:59:09.91 14:24/M
244 JEFFREY HEGER EARLEVILLE MD 728 22 M 20 20-29 3:59:20.73 14:25/M
245 MIKE KEMEN BEL AIR MD 768 52 M 29 50-59 3:59:24.83 14:25/M
246 KAITLYN BOWER CALIFON NJ 47 27 F 11 20-29 3:59:27.41 14:25/M
247 TRISHA HENSLEY SEWELL NJ 200 42 F 15 40-49 3:59:31.41 14:26/M
248 BRIAN BROWN LEWISBURG PA 567 41 M 59 40-49 3:59:41.71 14:26/M
249 SEAN FISHER DRUMS PA 669 0 M 1 0- 0 3:59:53.49 14:27/M
250 STEFANIE SMITH SAYRE PA 416 26 F 12 20-29 3:59:55.91 14:27/M
251 ANDREW PRZEKURAT MACUNGIE PA 913 21 M 21 20-29 3:59:56.74 14:27/M
252 RICK SHULL PENNSDALE PA 976 49 M 60 40-49 4:00:05.41 14:28/M
253 DAUN SIGAFOOSE ABINGDON MD 978 55 M 30 50-59 4:00:05.44 14:28/M
254 REBECCA LUNDIN STATE COLLEGE PA 271 32 F 25 30-39 4:00:28.41 14:29/M
255 ALEXIS SHANK MARION CENTER PA 396 32 F 26 30-39 4:00:35.91 14:30/M
256 NICOLE WERNER AMBLER PA 479 37 F 27 30-39 4:00:36.57 14:30/M
257 MICHELLE LANDMAN ORELAND PA 256 36 F 28 30-39 4:00:48.41 14:30/M
258 MERLIN KING NARVON PA 780 24 M 22 20-29 4:01:12.35 14:32/M
259 SUSAN KING NARVON PA 239 22 F 13 20-29 4:01:12.66 14:32/M
260 JOSH DAY MILL HALL PA 617 32 M 68 30-39 4:02:16.42 14:36/M
261 TERRI WIEDENHOFER PITTSBURGH PA 488 52 F 4 50-59 4:02:25.82 14:36/M
262 PATRICK LISTER CRANBERRY TOWNSHIP PA 826 33 M 69 30-39 4:02:42.59 14:37/M
263 RICHARD FILLMAN JERSEY SHORE PA 665 63 M 5 60-99 4:02:49.67 14:38/M
264 JON SCHALL LOCK HAVEN PA 955 40 M 61 40-49 4:03:03.34 14:38/M
265 DAVID SUROVEC HOWARD PA 1021 36 M 70 30-39 4:03:29.32 14:40/M
266 BRYAN TROOP ELIZABETHTOWN PA 1031 30 M 71 30-39 4:03:55.25 14:42/M
267 TESS MARTIN SILVER SPRING MD 277 16 F 5 1-19 4:04:21.42 14:43/M
268 JADEN HILL SPRUCE CREEK PA 204 15 F 6 1-19 4:04:21.58 14:43/M
269 BETHANY STOUGH SPRUCE CREEK PA 440 39 F 29 30-39 4:04:36.29 14:44/M
270 TERESA BARNES WILLIAMSPORT PA 15 44 F 16 40-49 4:05:16.80 14:47/M
271 JOHN DUNKELBERGER NORTHUMBERLAND PA 638 47 M 62 40-49 4:06:13.64 14:50/M
272 SIERRA LEITCH REBERSBURG PA 261 27 F 14 20-29 4:06:26.18 14:51/M
273 CELINE DELANY WASHINGTON DC 101 36 F 30 30-39 4:06:26.41 14:51/M
274 GARY PETERSON PHILADELPHIA PA 901 55 M 31 50-59 4:06:34.92 14:51/M
275 ANDREA BRACKBILL WILLIAMSPORT PA 49 24 F 15 20-29 4:06:40.63 14:52/M
276 SAMANTHA WEAVER JERSEY SHORE PA 473 43 F 17 40-49 4:06:54.61 14:52/M
277 JAMIE SANDERS 1053 47 M 63 40-49 4:07:00.90 14:53/M
278 BILL MCCONNELL WATERVILLE PA 841 39 M 72 30-39 4:07:10.63 14:53/M
279 JAMES BAISLEY HONEOYE FALLS NY 529 16 M 13 1-19 4:07:37.22 14:55/M
280 KEVIN DIETZ PORT MATILDA PA 627 53 M 32 50-59 4:07:45.53 14:55/M
281 PATRICIA BURKE ALTOONA PA 62 38 F 31 30-39 4:07:50.82 14:56/M
282 ASHLYN WERT MCELHATTAN PA 480 16 F 7 1-19 4:08:05.18 14:57/M
283 MISTY TROWBRIDGE LOCK HAVEN PA 452 35 F 32 30-39 4:08:22.67 14:58/M
284 HEATHER WALTERS GREENFIELD TWP PA 468 37 F 33 30-39 4:08:24.90 14:58/M
285 JADEN LABARCA LIMA USA 801 13 M 14 1-19 4:08:26.50 14:58/M
286 TJ KNOX ERDENHEIM PA 786 37 M 73 30-39 4:08:43.38 14:59/M
287 LAURA RENNINGER MCCLURE PA 367 32 F 34 30-39 4:08:46.20 14:59/M
288 ASHLEY SITLER MONTOURSVILLE PA 407 26 F 16 20-29 4:08:46.59 14:59/M
289 MARTIN WILDY STATE COLLEGE PA 1058 38 M 74 30-39 4:08:51.65 14:59/M
290 KATRINA STEIN BEECH CREEK PA 427 30 F 35 30-39 4:09:14.75 15:01/M
291 STEPHEN IPPOLITI DOWNINGTOWN PA 750 41 M 64 40-49 4:09:29.69 15:02/M
292 MELISSA QUICK FLEMING PA 360 48 F 18 40-49 4:09:49.93 15:03/M
293 DAPHNE MCNAMARA COUDERSPORT PA 291 42 F 19 40-49 4:09:50.55 15:03/M
294 BRENT HOLLOWELL STATE COLLEGE PA 737 52 M 33 50-59 4:10:00.32 15:04/M
295 KAREN MILLER PORT MATILDA PA 301 51 F 5 50-59 4:10:09.43 15:04/M
296 DAVID BERGER LANDENBERG PA 545 42 M 65 40-49 4:10:12.89 15:04/M
297 AMANDA YOHN HUGHESVILLE PA 503 26 F 17 20-29 4:10:20.18 15:05/M
298 JANAE RYAN CLYMER NY 381 39 F 36 30-39 4:11:06.93 15:08/M
299 KATE O'CONNOR FALCONER NY 330 43 F 20 40-49 4:11:15.68 15:08/M
300 AUSTIN UNRUH MORGANTOWN PA 1037 24 M 23 20-29 4:11:23.19 15:09/M
 
Place Name City Bib No Age Gender Age Group Total Time Pace
301 RYAN KNECHT BLAIRSVILLE PA 784 44 M 66 40-49 4:11:35.19 15:09/M
302 CHARLES KIVLEN SHAVERTOWN PA 783 32 M 75 30-39 4:11:41.30 15:10/M
303 SHELLEY MUTH DUBOIS PA 322 42 F 21 40-49 4:11:50.22 15:10/M
304 GEORGE RUSCZYK LOCK HAVEN PA 945 35 M 76 30-39 4:12:10.72 15:11/M
305 TABBY DUNN MONROETON PA 117 31 F 37 30-39 4:12:27.57 15:12/M
306 LLOYD CLARKE PITTSBURGH PA 594 54 M 34 50-59 4:12:29.94 15:13/M
307 BRIAN MONAHAN EAST HAMPTON NY 866 49 M 67 40-49 4:12:30.20 15:13/M
308 VICTOR GORINI MONTOURSVILLE PA 702 44 M 68 40-49 4:12:32.85 15:13/M
309 JON MORRILL BERGEN NY 872 45 M 69 40-49 4:12:47.44 15:14/M
310 SEAN WILSON WAVERLY NY 1064 40 M 70 40-49 4:12:56.65 15:14/M
311 ELLEN PRESS PITTSBURGH PA 352 28 F 18 20-29 4:13:02.98 15:15/M
312 TINA BREINING JERSEY SHORE PA 54 34 F 38 30-39 4:13:06.19 15:15/M
313 ROB GIANNAMORE ALBION PA 692 38 M 77 30-39 4:13:38.91 15:17/M
314 ROD STOLTZFUS NEW HOLLAND PA 1013 49 M 71 40-49 4:13:39.52 15:17/M
315 JASON SMITH LOCK HAVEN PA 989 28 M 24 20-29 4:14:10.64 15:19/M
316 CRAIG CLARK PUNXSUTAWNEY PA 592 59 M 35 50-59 4:14:12.87 15:19/M
317 DANE CLARK ANITA PA 593 32 M 78 30-39 4:14:13.47 15:19/M
318 DAN CANTAGALLO JERSEY CITY NJ 578 36 M 79 30-39 4:14:28.94 15:20/M
319 TACY POWERS NEWARK DE 350 47 F 22 40-49 4:14:49.63 15:21/M
320 BEN BREWER ANNVILLE PA 565 35 M 80 30-39 4:15:01.17 15:22/M
321 KIMBERLY PLUMMER HORSEHEADS NY 345 27 F 19 20-29 4:15:29.81 15:23/M
322 TRACY KNOEBEL SOUTH WILLIAMSPORT PA 245 38 F 39 30-39 4:15:38.44 15:24/M
323 BRANDON ROSETTIE HORSEHEADS NY 943 40 M 72 40-49 4:15:47.45 15:25/M
324 LENNY RIGG CLARENCE PA 932 43 M 73 40-49 4:16:04.10 15:26/M
325 KELLY HIBBLER LOCK HAVEN PA 202 48 F 23 40-49 4:16:18.67 15:26/M
326 RYAN LINN WILLIAMSPORT PA 820 37 M 81 30-39 4:16:21.10 15:27/M
327 SHAWN BRANTON JERSEY SHORE PA 563 47 M 74 40-49 4:16:40.39 15:28/M
328 ANDREW LUND LITITZ PA 830 32 M 82 30-39 4:17:07.60 15:29/M
329 AMBER MONAGHAN LITITZ PA 308 34 F 40 30-39 4:17:08.45 15:29/M
330 ELIZABETH HARVEY TORONTO ON 189 23 F 20 20-29 4:17:09.42 15:29/M
331 TERRY MCCASLIN BELLEFONTE PA 840 66 M 6 60-99 4:17:17.92 15:30/M
332 MIKE DUTROW HANOVER TOWNSHIP PA 641 40 M 75 40-49 4:17:18.12 15:30/M
333 LAUREN BROOKS PA PA 57 35 F 41 30-39 4:17:26.86 15:30/M
334 SARAH BENDER ELLIOTTSBURG PA 28 32 F 42 30-39 4:18:14.56 15:33/M
335 TIM MCCARTHY ALTOONA PA 839 46 M 76 40-49 4:18:17.39 15:34/M
336 TODD BERGER SPRING TX 546 52 M 36 50-59 4:18:43.96 15:35/M
337 LEVI SUNDERLAND MCVEYTOWN PA 1020 19 M 15 1-19 4:19:03.91 15:36/M
338 ALEXANDRA MIDDLEBROOK BLACKWOOD NJ 296 22 F 21 20-29 4:19:18.84 15:37/M
339 BRANDON ECKERT LEBANON PA 645 32 M 83 30-39 4:19:39.70 15:38/M
340 MARK WAHL WOODLYN PA 1045 48 M 77 40-49 4:20:04.29 15:40/M
341 COURTNEY BARTH READING PA 17 35 F 43 30-39 4:20:11.95 15:40/M
342 JENNIFER HELMAN REYNOLDSVILLE PA 198 34 F 44 30-39 4:21:18.71 15:44/M
343 JAMES MCCULLOUGH CROYDON PA 842 38 M 84 30-39 4:21:19.39 15:45/M
344 THOMAS KERSTETTER LEWISTOWN PA 772 26 M 25 20-29 4:21:38.71 15:46/M
345 PAUL KESLER BATAVIA NY 773 41 M 78 40-49 4:21:45.23 15:46/M
346 LARA ARNDT STROUDSBURG PA 7 31 F 45 30-39 4:21:52.52 15:47/M
347 BILL MCGREGOR LOCK HAVEN PA 843 40 M 79 40-49 4:22:31.21 15:49/M
348 JOSHUA SCANLAN QUEENS NY 952 35 M 85 30-39 4:22:31.72 15:49/M
349 DEBRA RIEUTORT LAKE ARIEL PA 371 57 F 6 50-59 4:22:51.21 15:50/M
350 FRANK KOEHL BELLEFONTE PA 787 34 M 86 30-39 4:22:54.48 15:50/M
351 MELISSA WALTER BEAVERTOWN PA 467 48 F 24 40-49 4:23:13.59 15:51/M
352 RYAN SCHANNAUER DEVON PA 957 35 M 87 30-39 4:23:14.71 15:51/M
353 WALTER COOK EAST HAMPTON NY 603 52 M 37 50-59 4:23:23.51 15:52/M
354 JOHN QUICK FLEMING PA 915 47 M 80 40-49 4:23:59.69 15:54/M
355 AMARYAH BOCCHINO WILMINGTON DE 40 35 F 46 30-39 4:24:07.80 15:55/M
356 DAVID SLUSSER MILLERTON PA 985 40 M 81 40-49 4:24:31.64 15:56/M
357 AMY DIETZ PORT MATILDA PA 105 52 F 7 50-59 4:24:35.48 15:56/M
358 EUGENIA CLARK EMPORIUM PA 80 43 F 25 40-49 4:25:16.46 15:59/M
359 PAT FOURNEY LOCK HAVEN PA 672 45 M 82 40-49 4:25:45.38 16:01/M
360 TOM HOWE LITITZ PA 740 49 M 83 40-49 4:26:39.86 16:04/M
361 BOBBI SEYFERT JONESTOWN PA 394 42 F 26 40-49 4:26:46.47 16:04/M
362 JILL SNAVELY ZION GROVE PA 417 38 F 47 30-39 4:27:14.72 16:06/M
363 JEFFRY SCHIESLER PORT MATILDA PA 959 60 M 7 60-99 4:27:15.54 16:06/M
364 JONATHAN KELLER HARRISBURG PA 1084 32 M 88 30-39 4:27:23.46 16:06/M
365 ALEXANDER NOHAI-SEAMAN ROCKY POINT NY 882 39 M 89 30-39 4:27:29.96 16:07/M
366 ASHLEY ALLEN WASHINGTON DC 4 38 F 48 30-39 4:27:32.72 16:07/M
367 TOM MCKEE SELINSGROVE PA 844 34 M 90 30-39 4:27:39.30 16:07/M
368 TERRY LAWHEAD ALTOONA PA 807 44 M 84 40-49 4:27:43.97 16:08/M
369 MARK SHARER SPRING MILLS PA 971 44 M 85 40-49 4:28:31.67 16:11/M
370 AMANDA LANE DREXEL HILL PA 257 35 F 49 30-39 4:28:49.22 16:12/M
371 ERIC FETHERSTON WILLIAMSPORT PA 663 36 M 91 30-39 4:30:25.22 16:17/M
372 NATALIE AIELLO CANONSBURG PA 2 38 F 50 30-39 4:30:34.48 16:18/M
373 RON AIELLO CANONSBURG PA 512 42 M 86 40-49 4:30:35.72 16:18/M
374 CALVIN LESSER JERSEY SHORE PA 811 16 M 16 1-19 4:30:43.84 16:18/M
375 MOLLY HYLAND JERSEY SHORE PA 215 22 F 22 20-29 4:31:05.21 16:20/M
376 JESSIE KARR JERSEY SHORE PA 223 22 F 23 20-29 4:31:06.42 16:20/M
377 THOMAS SULLIVAN WILLIAMSPORT PA 1019 38 M 92 30-39 4:31:27.19 16:21/M
378 ASHLEY SCHRAG PENNSYLVANIA FURNACE PA 388 31 F 51 30-39 4:31:46.64 16:22/M
379 TIFFANY HRACH MEADVILLE PA 210 37 F 52 30-39 4:32:07.64 16:24/M
380 CLAYTON DICKERSON WEST CHESTER PA 625 23 M 26 20-29 4:32:22.98 16:24/M
381 MEGAN STEWART PITTSBURGH PA 431 23 F 24 20-29 4:32:23.69 16:25/M
382 LEE KELCHNER MILLVILLE PA 766 52 M 38 50-59 4:32:46.64 16:26/M
383 KYLA MAZURKEWIZ POLK PA 283 34 F 53 30-39 4:32:57.48 16:27/M
384 KEVIN GORMLEY STATE COLLEGE PA 703 34 M 93 30-39 4:32:58.73 16:27/M
385 KAREN SHARPSTEEN WAVERLY NY 399 42 F 27 40-49 4:33:00.62 16:27/M
386 ERIN ANDREWS COUDERSPORT PA 6 38 F 54 30-39 4:33:25.73 16:28/M
387 MICHAEL SPAIDE NORTHUMBERLAND PA 1001 39 M 94 30-39 4:33:47.98 16:30/M
388 DANNY LABANT GALETON PA 799 53 M 39 50-59 4:33:50.62 16:30/M
389 ANDREW KERN HARRISBURG PA 769 32 M 95 30-39 4:34:02.74 16:30/M
390 BECKY BERCIS JAMESTOWN PA 29 37 F 55 30-39 4:34:03.59 16:31/M
391 ROBYN DINCHER WILLIAMSPORT PA 106 35 F 56 30-39 4:34:04.73 16:31/M
392 BRIAN CHILTON BOALSBURG PA 589 46 M 87 40-49 4:34:06.46 16:31/M
393 KRISTIN KING QUAKERTOWN PA 238 35 F 57 30-39 4:34:08.48 16:31/M
394 PATRICK SHANAHAN WAYNE PA 970 31 M 96 30-39 4:34:29.21 16:32/M
395 LEAH ABBOTT PITTSBURGH PA 1 33 F 58 30-39 4:34:38.74 16:33/M
396 COLLEEN KING OTTSVILLE PA 237 24 F 25 20-29 4:34:51.48 16:33/M
397 SHANNON MILLER WILLIAMSPORT PA 304 41 F 28 40-49 4:35:05.19 16:34/M
398 KRIKOR PANOSSIAN MEDIA PA 894 32 M 97 30-39 4:35:14.74 16:35/M
399 JENNIFER CARROLL PLEASANT GAP PA 69 42 F 29 40-49 4:35:22.71 16:35/M
400 KARLI COWBURN COUDERSPORT PA 89 24 F 26 20-29 4:35:23.93 16:35/M
 
Place Name City Bib No Age Gender Age Group Total Time Pace
401 WILLIAM SCHULTZ FOLSOM PA 962 35 M 98 30-39 4:35:29.43 16:36/M
402 REBECCA DIPIETRO LANCASTER PA 108 43 F 30 40-49 4:35:38.49 16:36/M
403 STEPHANIE BEDISON MONTOURSVILLE PA 25 61 F 1 60-99 4:35:48.93 16:37/M
404 ALAN SIKORA WAYNE PA 979 66 M 8 60-99 4:36:07.49 16:38/M
405 ALLAN GILBERT ATHENS PA 694 54 M 40 50-59 4:36:16.24 16:39/M
406 KATIE FERNAN RIDGWAY PA 135 41 F 31 40-49 4:36:20.74 16:39/M
407 PAUL ZICUIS DOYLESTOWN PA 1075 41 M 88 40-49 4:36:28.92 16:39/M
408 COURTNEY LISK DALTON PA 267 40 F 32 40-49 4:36:44.96 16:40/M
409 MICHELLE FAHEY DALTON PA 130 44 F 33 40-49 4:36:44.96 16:40/M
410 JACQUELINE ONG RESTON VA 333 55 F 8 50-59 4:37:04.24 16:41/M
411 JILL UNDERKOFFLER ELIZABETHVILLE PA 454 44 F 34 40-49 4:37:05.69 16:42/M
412 JEREMY ALLEN WASHINGTON DC 516 40 M 89 40-49 4:37:20.49 16:42/M
413 THOMAS STEWART BLOOMSBURG PA 1009 38 M 99 30-39 4:37:29.99 16:43/M
414 CHERYL HAUS MANHEIM PA 192 32 F 59 30-39 4:37:39.65 16:44/M
415 SHAUN BELOW SWIFTWATER PA 542 42 M 90 40-49 4:38:05.22 16:45/M
416 TODD SCANLON ONEONTA NY 953 43 M 91 40-49 4:38:05.42 16:45/M
417 ZEBULON DUNN MONROETON PA 640 29 M 27 20-29 4:38:13.74 16:46/M
418 PHILIP MILLER RED LION PA 858 48 M 92 40-49 4:38:31.53 16:47/M
419 TOM OHARA WOODBURY HEIGHTS NJ 888 40 M 93 40-49 4:39:28.69 16:50/M
420 CATHY DAUBERT MILROY PA 95 47 F 35 40-49 4:39:35.99 16:51/M
421 LAURYN BOSTDORF HOWARD PA 45 24 F 27 20-29 4:39:55.54 16:52/M
422 KARA MILLER MILESBURG PA 300 24 F 28 20-29 4:39:55.96 16:52/M
423 MELISSA COBLE STATE COLLEGE PA 85 33 F 60 30-39 4:39:56.76 16:52/M
424 LARRY DITTY WORMLEYSBURG PA 630 43 M 94 40-49 4:39:59.61 16:52/M
425 SANTIAGO ALVAREZ TRAFFORD PA 517 49 M 95 40-49 4:40:08.71 16:53/M
426 NICHOL MURRAY BUTLER PA 321 37 F 61 30-39 4:40:57.25 16:55/M
427 BECKY BLIMLINE LANCASTER PA 38 28 F 29 20-29 4:40:59.20 16:56/M
428 JAMES GATES ORANGEVILLE PA 686 40 M 96 40-49 4:41:29.94 16:57/M
429 VAL CANTAGALLO PHILADELPHIA PA 580 33 M 100 30-39 4:41:57.50 16:59/M
430 LORI KETTERER BIRDSBORO PA 234 43 F 36 40-49 4:42:04.30 17:00/M
431 JIMMY LAPP NEW HOLLAND PA 804 41 M 97 40-49 4:42:08.61 17:00/M
432 MATT MIDDLEBROOK SAYRE PA 851 49 M 98 40-49 4:42:12.48 17:00/M
433 ADELL WILLIAMS CANTON PA 492 37 F 62 30-39 4:42:47.21 17:02/M
434 ANETTE CANTAGALLO JERSEY CITY NJ 67 32 F 63 30-39 4:43:12.38 17:04/M
435 JEFFERSON STOLTZFUS EPHRATA PA 1012 42 M 99 40-49 4:43:57.84 17:06/M
436 ALLISON EISENHOWER PETERSBURG PA 123 33 F 64 30-39 4:44:38.48 17:09/M
437 MORGAN ARNONE GAITHERSBURG MD 8 32 F 65 30-39 4:44:38.50 17:09/M
438 MICK KOWALSKI BLOOMSBURG PA 791 47 M 100 40-49 4:44:48.50 17:09/M
439 EVE-MARIE GILBERT ATHENS PA 159 47 F 37 40-49 4:45:07.51 17:11/M
440 DICK WRIGHT STATE COLLEGE PA 1068 54 M 41 50-59 4:45:09.21 17:11/M
441 SARAH MOYER ANNVILLE PA 316 30 F 66 30-39 4:45:30.10 17:12/M
442 LEIA BARRETT PIPERSVILLE PA 16 36 F 67 30-39 4:45:43.93 17:13/M
443 RICHARD DICKERSON LITITZ PA 626 53 M 42 50-59 4:46:16.12 17:15/M
444 GARY REINHART PUNXSUTAWNEY PA 925 55 M 43 50-59 4:46:18.95 17:15/M
445 KATY LAUDENSLAGER SOUTH WILLIAMSPORT PA 259 37 F 68 30-39 4:46:26.20 17:15/M
446 JENNIFER NILSSON JERSEY SHORE PA 326 38 F 69 30-39 4:46:26.20 17:15/M
447 BOB BAGULEY LOCK HAVEN PA 527 60 M 9 60-99 4:46:27.76 17:15/M
448 CARRIE ROMIG BLOOMSBURG PA 378 46 F 38 40-49 4:46:36.39 17:16/M
449 CLAY MCMATH EAST WATERFORD PA 845 43 M 101 40-49 4:46:51.37 17:17/M
450 TARA BECHDEL HOWARD PA 20 31 F 70 30-39 4:46:57.27 17:17/M
451 JEFFREY RODGERS MIFFLINBURG PA 938 52 M 44 50-59 4:47:01.76 17:17/M
452 KATIE GENTZYEL COUDERSPORT PA 156 32 F 71 30-39 4:47:11.34 17:18/M
453 MARGARETTA WILCOX PHILADELPHIA PA 489 32 F 72 30-39 4:47:11.94 17:18/M
454 PAULA RENNINGER GROVE CITY PA 368 49 F 39 40-49 4:47:14.39 17:18/M
455 DAVID RENNINGER TITUSVILLE PA 926 42 M 102 40-49 4:47:14.76 17:18/M
456 JUSSAE HANFORD SOUTH WILLIAMSPORT PA 185 26 F 30 20-29 4:47:19.19 17:18/M
457 KELLY PRENDERGAST MORGANTOWN WV 351 25 F 31 20-29 4:47:20.23 17:19/M
458 DOMINIQUE CUMMINGS EAST HAMPTON NY 92 55 F 9 50-59 4:47:21.26 17:19/M
459 KEVIN HARRIS LEBANON PA 724 29 M 28 20-29 4:47:28.80 17:19/M
460 KATHY HEIVLY LOCK HAVEN PA 196 46 F 40 40-49 4:47:30.23 17:19/M
461 CHRISTINE FULLER BLOOMSBURG PA 145 44 F 41 40-49 4:47:35.26 17:19/M
462 SALLY VILLELLA PUNXSUATWNEY PA 460 58 F 10 50-59 4:47:35.70 17:19/M
463 BOBI JEAN MCFADDEN WHITEFORD MD 289 46 F 42 40-49 4:47:40.51 17:20/M
464 KEVIN ESH NEW HOLLAND PA 652 23 M 29 20-29 4:47:50.51 17:20/M
465 SHAUNA MCQUADE CUMBERLAND MD 293 37 F 73 30-39 4:47:55.17 17:21/M
466 HUNTER BIERLY WATERVILLE PA 550 15 M 17 1-19 4:48:22.16 17:22/M
467 DEAN JOHNSON RED HILL PA 1089 56 M 45 50-59 4:48:33.49 17:23/M
468 SCOTT CARSON HAVERTOWN PA 581 48 M 103 40-49 4:48:38.51 17:23/M
469 BRENDAN VAUGHAN HAVERTOWN PA 1039 50 M 46 50-59 4:48:38.98 17:23/M
470 STEPHEN RIGO ARDMORE PA 933 46 M 104 40-49 4:48:40.80 17:23/M
471 JESSE RATHMELL MILL HALL PA 918 33 M 101 30-39 4:48:50.57 17:24/M
472 JILL GIRIO WILLIAMSPORT PA 162 35 F 74 30-39 4:48:58.67 17:24/M
473 ROBBIE REEVES STREET MD 366 52 F 11 50-59 4:49:02.26 17:25/M
474 MARY KEPLER LEWISTOWN MT 231 59 F 12 50-59 4:49:18.18 17:26/M
475 KEPLER KEVIN LEWISTOWN MT 774 55 M 47 50-59 4:49:20.41 17:26/M
476 BILL HACKENBERG HOWARD PA 716 51 M 48 50-59 4:49:25.84 17:26/M
477 REBECCA SPANGLER PORT MATILDA PA 421 32 F 75 30-39 4:49:30.19 17:26/M
478 JOHN BLESH LOCK HAVEN PA 556 40 M 105 40-49 4:49:38.52 17:27/M
479 KEVIN WILSON GROTON CT 1063 33 M 102 30-39 4:50:06.33 17:29/M
480 JIM HEPNER WEST CONSHOHOCKEN PA 731 43 M 106 40-49 4:50:21.19 17:29/M
481 KARLY WALUSHKA BIG FLATS NY 469 28 F 32 20-29 4:50:52.94 17:31/M
482 MICHAEL JACQUINTO NEWARK DE 752 28 M 30 20-29 4:50:55.33 17:32/M
483 TERA REDMOND BEECH CREEK PA 363 32 F 76 30-39 4:50:59.22 17:32/M
484 CRYSTAL PECHT STATE COLLEGE PA 338 27 F 33 20-29 4:51:05.94 17:32/M
485 SHANNAN KINLEY MONTOURSVILLE PA 240 35 F 77 30-39 4:51:27.44 17:33/M
486 GINA WERT MCELHATTAN PA 481 50 F 13 50-59 4:51:31.49 17:34/M
487 SUSAN WEAVER WYALUSING PA 474 47 F 43 40-49 4:51:38.15 17:34/M
488 REBECCA RUSCZYK SOUTH WILLIAMSPORT PA 380 29 F 34 20-29 4:51:43.30 17:34/M
489 SARAH BACON APG MD 11 37 F 78 30-39 4:51:48.35 17:35/M
490 CRAIG HAKIN JERSEY SHORE PA 719 50 M 49 50-59 4:51:59.92 17:35/M
491 ROD KERSTETTER MILTON PA 771 58 M 50 50-59 4:52:16.18 17:36/M
492 JODI WILSON GROTON CT 494 32 F 79 30-39 4:52:17.21 17:36/M
493 STEPHEN CHERVENYAK WILLIAMSPORT PA 588 31 M 103 30-39 4:52:25.94 17:37/M
494 GERALD KURTZ MORGANTOWN PA 797 71 M 10 60-99 4:52:45.89 17:38/M
495 JEFFREY GRANT SILVER SPRING MD 706 54 M 51 50-59 4:53:09.83 17:40/M
496 NANCY BILGER CRANBERRY TWP PA 32 39 F 80 30-39 4:53:13.27 17:40/M
497 SUSAN KEMEN BEL AIR MD 225 53 F 14 50-59 4:53:15.50 17:40/M
498 BOB MARKOVICH MARS PA 835 51 M 52 50-59 4:53:23.25 17:40/M
499 DAREN ALLEN UNION CITY PA 515 46 M 107 40-49 4:53:33.80 17:41/M
500 JON BELLOTTI PITTSBURGH PA 541 44 M 108 40-49 4:53:41.28 17:42/M
 
Place Name City Bib No Age Gender Age Group Total Time Pace
501 MEGAN RIPKA WILLIAMSPORT PA 373 34 F 81 30-39 4:53:51.13 17:42/M
502 BRAD PEIFFER BETHEL PA 898 42 M 109 40-49 4:53:57.61 17:42/M
503 MARIA SCHREIBER WAVERLY NY 389 27 F 35 20-29 4:54:07.26 17:43/M
504 MARGARET CRATE CONNEAUTVILLE PA 90 43 F 44 40-49 4:54:11.26 17:43/M
505 ELIZABETH HARRIS MONTOURSVILLE PA 188 35 F 82 30-39 4:54:26.65 17:44/M
506 AUDREY WALSH WYNDMOOR PA 466 43 F 45 40-49 4:54:28.28 17:44/M
507 KIM KEELEY SLIPPERY ROCK PA 224 34 F 83 30-39 4:54:34.12 17:45/M
508 JANICE GRAY LOCK HAVEN PA 173 53 F 15 50-59 4:54:49.76 17:46/M
509 MELONIE SAPPE DUNMORE PA 382 33 F 84 30-39 4:54:50.37 17:46/M
510 BENJAMIN WATTS SELINSGROVE PA 1050 29 M 31 20-29 4:54:51.78 17:46/M
511 JEFF CORCORAN HARRISBURG PA 605 40 M 110 40-49 4:54:53.83 17:46/M
512 DAVID PILKUS EASTON PA 906 52 M 53 50-59 4:55:02.52 17:46/M
513 AUSTIN RHODES HARRISBURG PA 929 39 M 104 30-39 4:55:05.22 17:47/M
514 CINDI STEVE DALTON PA 429 53 F 16 50-59 4:55:35.28 17:48/M
515 KELLI STOUDNOUR HOLLIDAYSBURG PA 438 45 F 46 40-49 4:55:35.69 17:48/M
516 CAMERON SERAFINI DUSHORE PA 966 22 M 32 20-29 4:56:03.69 17:50/M
517 JILL SCHOEPFLIN BLOOMSBURG PA 387 47 F 47 40-49 4:56:05.91 17:50/M
518 BRIGITTE SHEEHAN NEWARK DE 400 55 F 17 50-59 4:56:08.53 17:50/M
519 SCOTT BENTON ALLISON PARK PA 544 56 M 54 50-59 4:56:10.38 17:50/M
520 ANDY COSENTINE SOUTH WILLIAMSPORT PA 607 45 M 111 40-49 4:56:13.26 17:51/M
521 CARRIE PIFER MERCERSBURG PA 905 44 F 48 40-49 4:56:19.36 17:51/M
522 JULIE LANG RIDGWAY PA 258 39 F 85 30-39 4:56:47.53 17:53/M
523 ASHLEY EDWARDS LOCK HAVEN PA 648 38 M 105 30-39 4:56:49.53 17:53/M
524 ERIC KING QUAKERTOWN PA 777 35 M 106 30-39 4:57:05.20 17:54/M
525 SCOTT CHARNEY LANCASTER PA 586 54 M 55 50-59 4:57:13.33 17:54/M
526 CAROLYN GARDNER STATE COLLEGE PA 151 40 F 49 40-49 4:57:36.78 17:56/M
527 SCOTT BALDWIN CARLISLE PA 530 35 M 107 30-39 4:57:40.53 17:56/M
528 ERICA BREIGHNER CUMBERLAND MD 53 38 F 86 30-39 4:57:50.50 17:57/M
529 STEPHANIE STELTZER PITTSBURGH PA 428 32 F 87 30-39 4:57:54.34 17:57/M
530 ABIGAIL LAMPMAN RIDGWAY PA 255 21 F 36 20-29 4:58:13.53 17:58/M
531 JUSTIN WYCHUNIS CLIFTON HEIGHTS PA 1070 33 M 108 30-39 4:58:26.78 17:59/M
532 JILLIAN KAMPF EAST HAMPTON NY 222 33 F 88 30-39 4:58:50.74 18:00/M
533 CHAD GRAZIANO CLEARFIELD PA 708 30 M 109 30-39 4:58:52.57 18:00/M
534 THOMAS BINKLEY SOUTH WILLIAMSPORT PA 551 49 M 112 40-49 4:58:56.43 18:00/M
535 ANNE ROCK PHILADELPHIA PA 376 53 F 18 50-59 4:59:07.78 18:01/M
536 STEVE BLAKER MONTOURSVILLE PA 554 61 M 11 60-99 4:59:09.40 18:01/M
537 LEE ANN LEVESQUE OWEGO NY 263 51 F 19 50-59 4:59:23.78 18:02/M
538 SHAINA GILBERT LOCK HAVEN PA 160 33 F 89 30-39 4:59:24.79 18:02/M
539 STEPHANIE MORROW HARRISBURG PA 315 43 F 50 40-49 4:59:29.47 18:02/M
540 KIRSTEN LABANT JERSEY SHORE PA 252 26 F 37 20-29 4:59:36.27 18:03/M
541 BRIAN LIPINSKI LEWISBURG PA 822 43 M 113 40-49 4:59:36.42 18:03/M
542 MICHELLE CHRONISTER MUNCY PA 79 35 F 90 30-39 4:59:42.90 18:03/M
543 MICHELE EDWARDS LOCK HAVEN PA 122 37 F 91 30-39 4:59:53.27 18:04/M
544 JUDY BAGULEY LOCK HAVEN PA 12 52 F 20 50-59 5:00:10.33 18:05/M
545 CAROL LUTHY SENECA FALLS NY 272 50 F 21 50-59 5:00:13.35 18:05/M
546 ERIC MOYER ANNVILLE PA 875 40 M 114 40-49 5:00:23.10 18:06/M
547 ZACHARY ABBOTT PITTSBURGH PA 509 33 M 110 30-39 5:01:25.44 18:09/M
548 BECKI` MORRISON BROCKPORT PA 314 57 F 22 50-59 5:02:04.63 18:12/M
549 MITCH MORRISON` BROCKPORT PA 873 57 M 56 50-59 5:02:05.39 18:12/M
550 COURTNEY WEIDLER JERSEY SHORE PA 476 28 F 38 20-29 5:02:19.26 18:13/M
551 DAN GOHN WRIGHTSVILLE PA 698 42 M 115 40-49 5:03:40.79 18:18/M
552 SAMUEL SNYDER NEW PROVIDENCE NJ 995 53 M 57 50-59 5:03:45.96 18:18/M
553 DENNY COLEGROVE WELLSBORO PA 601 58 M 58 50-59 5:03:49.61 18:18/M
554 PETE GSTALDER MONTOURSVILLE PA 712 62 M 12 60-99 5:03:54.27 18:18/M
555 CARRIE STEELE HANOVER PA 426 39 F 92 30-39 5:04:20.45 18:20/M
556 GEORGE STRADTMAN STATE COLLEGE PA 1017 34 M 111 30-39 5:04:20.66 18:20/M
557 GEOFFREY MILLER MOUNT JOY PA 855 44 M 116 40-49 5:04:21.67 18:20/M
558 PAUL NOLL LOCK HAVEN PA 885 43 M 117 40-49 5:04:28.40 18:20/M
559 ADELINA WELCH ANNAPOLIS MD 477 58 F 23 50-59 5:05:15.92 18:23/M
560 STEVE MORGAN WILLIAMSPORT PA 871 63 M 13 60-99 5:05:24.21 18:24/M
561 TONYA WILCOX WELLSBORO PA 490 51 F 24 50-59 5:05:29.73 18:24/M
562 AMANDA JACOBS PORT MATILDA PA 218 40 F 51 40-49 5:05:41.50 18:25/M
563 DALLAS BEACHEL DANVILLE PA 535 33 M 112 30-39 5:05:58.30 18:26/M
564 SHERRY HYLAND JERSEY SHORE PA 216 51 F 25 50-59 5:06:01.79 18:26/M
565 MISTY REED COUDERSPORT PA 365 49 F 52 40-49 5:06:02.30 18:26/M
566 JAMES REED COUDERSPORT PA 922 50 M 59 50-59 5:06:03.21 18:26/M
567 MIKE MEAGHER ELMIRA NY 847 54 M 60 50-59 5:06:06.46 18:26/M
568 ALVIN REDCAY MOHNTON PA 921 61 M 14 60-99 5:06:21.14 18:27/M
569 BRIAN DANIELS CORTLAND OH 616 27 M 33 20-29 5:06:28.41 18:28/M
570 STEVE ILES MONROEVILLE NJ 747 57 M 61 50-59 5:06:45.27 18:29/M
571 MYRON KYLE HOWARD PA 798 51 M 62 50-59 5:06:56.52 18:29/M
572 DAVE BECKER LEWISTOWN PA 537 51 M 63 50-59 5:06:59.53 18:30/M
573 CINDY ROWE BELLEFONTE PA 379 48 F 53 40-49 5:07:09.33 18:30/M
574 JENNIFER KOZLOWSKI MOON PA 248 36 F 93 30-39 5:07:10.50 18:30/M
575 SCOTT LESLIE LIMA NY 810 53 M 64 50-59 5:07:15.80 18:31/M
576 PATRICK COLLINS HARRISBURG PA 602 51 M 65 50-59 5:07:17.53 18:31/M
577 DACIANA WASHBURN PARKER CO 470 36 F 94 30-39 5:07:49.45 18:33/M
578 AUDRIE PECHT BEECH CREEK PA 337 37 F 95 30-39 5:07:51.23 18:33/M
579 AMANDA STOLTZFUS WILCOX PA 434 29 F 39 20-29 5:08:04.80 18:33/M
580 LAURELL BOSTDORF ELVERSON PA 44 26 F 40 20-29 5:08:04.86 18:33/M
581 CARRIE VANWHY COUDERSPORT PA 459 40 F 54 40-49 5:08:20.80 18:34/M
582 DON BURGESS TOWANDA PA 574 64 M 15 60-99 5:08:40.39 18:36/M
583 HEIDI STOLTZFUS NEW HOLLAND PA 436 45 F 55 40-49 5:09:15.51 18:38/M
584 CORY RATHMELL LOCK HAVEN PA 917 39 M 113 30-39 5:09:27.30 18:38/M
585 AWIL ABRAR ALEXANDRIA VA 510 33 M 114 30-39 5:09:39.47 18:39/M
586 TERRY FULLER GIBSONIA PA 146 61 F 2 60-99 5:10:28.40 18:42/M
587 EMILY CHOUDHRY MALVERN PA 77 34 F 96 30-39 5:10:42.81 18:43/M
588 LUCAS JONES BEECH CREEK PA 759 35 M 115 30-39 5:10:54.55 18:44/M
589 JARED DRESSLER LOCK HAVEN PA 637 39 M 116 30-39 5:11:09.55 18:45/M
590 TIMOTHY PLUMMER HORSEHEADS NY 909 56 M 66 50-59 5:11:13.98 18:45/M
591 ALEX FULLER GIBSONIA PA 677 29 M 34 20-29 5:11:14.73 18:45/M
592 ERIN KENNEDY LOCK HAVEN PA 228 39 F 97 30-39 5:11:25.49 18:46/M
593 MICHELLE PEIFFER ELIZABETHVILLE PA 339 35 F 98 30-39 5:12:07.29 18:48/M
594 KRISTI PETERSON LYKENS PA 341 44 F 56 40-49 5:12:08.67 18:48/M
595 SOPHIE CHAUSSE LUSSIEZ DOYLESTOWN PA 75 38 F 99 30-39 5:12:34.81 18:50/M
596 JOSEPH OSWALD ASHLAND PA 891 53 M 67 50-59 5:12:35.53 18:50/M
597 WENDY RESHETAR DRUMS PA 369 41 F 57 40-49 5:13:13.29 18:52/M
598 MARK BARBIER MONTGOMERY PA 532 36 M 117 30-39 5:13:36.14 18:53/M
599 TRACY KERPER PERKASIE PA 1086 37 F 100 30-39 5:14:30.24 18:57/M
600 JENNIFER BISHOP QUAKERTOWN PA 33 41 F 58 40-49 5:14:30.31 18:57/M
 
Place Name City Bib No Age Gender Age Group Total Time Pace
601 SANDY GIBSON WASHINGTON CROSSING PA 158 43 F 59 40-49 5:14:33.27 18:57/M
602 STUART ROE EWING NJ 940 41 M 118 40-49 5:15:04.31 18:59/M
603 MAUREEN STATHES BELLEFONTE PA 425 53 F 26 50-59 5:15:09.22 18:59/M
604 JIM JOHNSON NEW CUMBERLAND, PA 757 61 M 16 60-99 5:16:31.81 19:04/M
605 RICK COULTER WILLIAMSPORT PA 608 63 M 17 60-99 5:16:34.47 19:04/M
606 MARY BETH DAY PORT MATILDA PA 98 45 F 60 40-49 5:17:10.31 19:06/M
607 RICH KALTREIDER ABBOTTSTOWN PA 763 58 M 68 50-59 5:17:44.68 19:08/M
608 LAURA FALSONE EDGEWATER MD 131 53 F 27 50-59 5:17:48.82 19:09/M
609 SCOTT LIPPY HANOVER PA 823 63 M 18 60-99 5:17:51.19 19:09/M
610 MIKE PRINGLE MILL HALL PA 911 46 M 119 40-49 5:18:24.75 19:11/M
611 BETHANY BAIR JERSEY SHORE PA 13 43 F 61 40-49 5:18:27.57 19:11/M
612 LESLIE POLYAK READING PA 347 35 F 101 30-39 5:19:25.82 19:15/M
613 JESSICA HRITZKO POTTSVILLE PA 212 35 F 102 30-39 5:19:26.49 19:15/M
614 EMILIE OISHI MCELHATTAN PA 332 57 F 28 50-59 5:20:03.83 19:17/M
615 GARY OISHI MCELHATTAN PA 889 57 M 69 50-59 5:20:03.83 19:17/M
616 ISABELLA FAVE MUNCY PA 132 13 F 8 1-19 5:20:04.25 19:17/M
617 MANDY LEHMAN NESCOPECK PA 260 42 F 62 40-49 5:20:07.68 19:17/M
618 SARAH GARBER ELIZABETHTOWN PA 149 30 F 103 30-39 5:20:16.88 19:18/M
619 DAVID LEVINE TAKOMA PARK MD 815 46 M 120 40-49 5:20:46.84 19:19/M
620 JANE KONE HOWARD PA 247 62 F 3 60-99 5:20:56.26 19:20/M
621 KEVIN BRUNNER RIDGWAY PA 569 52 M 70 50-59 5:20:56.83 19:20/M
622 ERIC BECKES LUTHERSBURG PA 538 45 M 121 40-49 5:20:58.89 19:20/M
623 MICHELE KUNTZ MUNCY PA 250 40 F 63 40-49 5:21:18.32 19:21/M
624 SOPHIE KIM FORT LEE NJ 236 46 F 64 40-49 5:21:25.73 19:22/M
625 JIM POOLE GROVE CITY PA 910 66 M 19 60-99 5:22:27.57 19:25/M
626 TIM ENGLEMAN WEDDINGTON NC 651 38 M 118 30-39 5:22:28.63 19:26/M
627 PEGGY BREWER CHESTER SPRINGS PA 55 57 F 29 50-59 5:23:07.57 19:28/M
628 JENNIFER HAGAMAN LOCK HAVEN PA 181 41 F 65 40-49 5:23:16.83 19:28/M
629 JAMIE REEVES STREET MD 924 52 M 71 50-59 5:23:46.56 19:30/M
630 JENNIFER THOMKE WILLIAMSPORT PA 446 34 F 104 30-39 5:24:01.33 19:31/M
631 SANDY CONFER HOWARD PA 87 50 F 30 50-59 5:24:12.83 19:32/M
632 DEBRA PUTNAM MORIN MUNCY PA 358 58 F 31 50-59 5:24:30.58 19:33/M
633 WENDY MILLER BELLEFONTE PA 305 50 F 32 50-59 5:24:47.33 19:34/M
634 NICOLE DRESHER HUDSON MA 112 34 F 105 30-39 5:25:05.56 19:35/M
635 NICHOLE GARCIA COOPERSBURG PA 150 30 F 106 30-39 5:25:08.19 19:35/M
636 DAVID GARCIA COOPERSBURG PA 682 37 M 119 30-39 5:25:10.22 19:35/M
637 JULIE SKAL CHICORA PA 408 38 F 107 30-39 5:25:26.71 19:36/M
638 ANGELA BIERLY WATERVILLE PA 31 36 F 108 30-39 5:25:38.58 19:37/M
639 LAURA MURNYACK CLARENCE PA 320 34 F 109 30-39 5:25:46.33 19:37/M
640 RICH DECENZO EAST MCKEESPORT PA PA 618 53 M 72 50-59 5:25:47.81 19:38/M
641 LAUREL JOHNSON CHICORA PA 220 21 F 41 20-29 5:25:50.58 19:38/M
642 SHANE WRIGHT BLOOMSBURG PA 1069 41 M 122 40-49 5:26:08.33 19:39/M
643 VALERIE DUFF WELLSBORO PA 115 42 F 66 40-49 5:26:21.96 19:40/M
644 SALLY BIDDINGER MILTON PA 30 55 F 33 50-59 5:26:32.11 19:40/M
645 DOUGLAS CARVELL HARRISBURG PA 582 51 M 73 50-59 5:26:37.82 19:41/M
646 BJ SPRINGMAN PENNSDALE PA 423 37 F 110 30-39 5:27:11.95 19:43/M
647 JIM FEDELE MCELHATTAN PA 659 50 M 74 50-59 5:27:21.89 19:43/M
648 AL BAIR JERSEY SHORE PA 528 45 M 123 40-49 5:27:23.53 19:43/M
649 HEATHER HUFNAGEL GLENMOORE PA 213 41 F 67 40-49 5:27:29.34 19:44/M
650 ERIN GREB DOYLESTOWN PA 176 39 F 111 30-39 5:27:29.55 19:44/M
651 MICHAEL BIDDINGER MILTON PA 549 55 M 75 50-59 5:28:10.44 19:46/M
652 SHERRY SHANK MARION CENTER PA 397 57 F 34 50-59 5:28:19.58 19:47/M
653 ALLISON MATTUCCI HUGHESVILLE PA 280 17 F 9 1-19 5:28:30.99 19:47/M
654 JIM HULSE BERNVILLE PA 744 44 M 124 40-49 5:28:52.34 19:49/M
655 REBEKAH CAWTHERN MONTOURSVILLE PA 71 28 F 42 20-29 5:28:52.96 19:49/M
656 YVONNE STOKES REYNOLDSVILLE PA 433 49 F 68 40-49 5:28:53.38 19:49/M
657 BRENDA YOUNG LITITZ PA 504 46 F 69 40-49 5:29:00.89 19:49/M
658 KELLY BRADLEY LOCK HAVEN PA 51 32 F 112 30-39 5:29:17.54 19:50/M
659 JENNIFER MELLOTT TRUMANSBURG NY 294 43 F 70 40-49 5:29:35.29 19:51/M
660 DONNA FICK BOALSBURG PA 136 51 F 35 50-59 5:30:06.84 19:53/M
661 KAYLA PROBERT RENOVO PA 354 11 F 10 1-19 5:30:07.84 19:53/M
662 BETH SIMON CENTRE HALL PA 404 37 F 113 30-39 5:30:33.84 19:55/M
663 JOHN GOSS PUNXSUTAWNEY PA 704 58 M 76 50-59 5:30:42.84 19:55/M
664 JEFF QUICK WESTFIELD PA 914 44 M 125 40-49 5:30:59.90 19:56/M
665 PAM POWERS CAMP HILL PA 349 60 F 4 60-99 5:31:06.55 19:57/M
666 WANDA GOOD NEW HOLLAND PA 166 52 F 36 50-59 5:31:14.80 19:57/M
667 JOE CHRIEST CONNEAUT LAKE PA 591 62 M 20 60-99 5:31:15.30 19:57/M
668 RYAN MICHAEL WILLIAMSPORT PA 850 29 M 35 20-29 5:31:16.59 19:57/M
669 LARRY HARER WILLIAMSPORT PA 722 64 M 21 60-99 5:31:21.34 19:58/M
670 MELANI EBERSOLE STATE COLLEGE PA 120 51 F 37 50-59 5:31:28.56 19:58/M
671 JEFF STOVER LOCK HAVEN PA 1016 66 M 22 60-99 5:31:44.83 19:59/M
672 KAREN MAZZOTTA BOALSBURG PA 284 50 F 38 50-59 5:31:56.28 20:00/M
673 LORI FABRIZIO JOHNSTOWN PA 129 45 F 71 40-49 5:32:05.96 20:00/M
674 CAROLINE WILLIAMS ARLINGTON VA 493 54 F 39 50-59 5:32:59.98 20:04/M
675 BERTHA STOLTZFUS GEIGERTOWN PA 435 50 F 40 50-59 5:33:42.25 20:06/M
676 SCOTT STOLTZFUS GEIGERTOWN PA 1014 51 M 77 50-59 5:33:42.59 20:06/M
677 LIBBY MIEKLEY CHALFONT PA 297 38 F 114 30-39 5:33:51.99 20:07/M
678 BRIAN DUNN 18832 PA 639 56 M 78 50-59 5:34:04.81 20:07/M
679 LARRY GOOD GAP PA 701 59 M 79 50-59 5:34:15.84 20:08/M
680 DERRICK SMITH MILL HALL PA 988 32 M 120 30-39 5:34:36.91 20:09/M
681 THERESA CAIMI LOCK HAVEN PA 65 43 F 72 40-49 5:34:46.17 20:10/M
682 SUSAN BLESH LOCK HAVEN PA 36 39 F 115 30-39 5:34:46.34 20:10/M
683 TOM DANDO SOUTHAMPTON PA 615 40 M 126 40-49 5:34:50.10 20:10/M
684 JEFFREY HUDSON PHILADELPHIA PA 743 36 M 121 30-39 5:35:18.10 20:12/M
685 NELLIE MORGAN DOYLESTOWN PA 312 33 F 116 30-39 5:35:19.32 20:12/M
686 REBECCA BREWER LANCASTER PA 56 41 F 73 40-49 5:35:24.60 20:12/M
687 JENNIFER LENIG HALIFAX PA 262 39 F 117 30-39 5:35:45.10 20:14/M
688 MELISSA VOINOVICH CHAGRIN FALLS OH 461 39 F 118 30-39 5:35:50.59 20:14/M
689 MIKE BUDZICKI CHAGRIN FALLS OH 572 33 M 122 30-39 5:35:50.59 20:14/M
690 DENNIS WOLFE WILLIAMSPORT PA 1066 64 M 23 60-99 5:36:19.82 20:16/M
691 KATY LOFGREN DOYLESTOWN PA 268 40 F 74 40-49 5:36:29.19 20:16/M
692 DAWN STIFFLER JERSEY SHORE PA 432 39 F 119 30-39 5:37:06.33 20:18/M
693 MARY DAUBERMAN BELLEFONTE PA 94 52 F 41 50-59 5:37:06.60 20:18/M
694 SALLY MOZLOOM EAST PETERSBURG PA 317 55 F 42 50-59 5:38:33.10 20:24/M
695 STEVE FEDDER SOUTH WILLIAMSPORT PA 658 61 M 24 60-99 5:38:59.35 20:25/M
696 DAVID SCHWILLE LEEPER PA 963 67 M 25 60-99 5:39:02.81 20:25/M
697 LAURIE POOLE PAWLEYS ISLAND SC 348 39 F 120 30-39 5:39:04.35 20:26/M
698 STACY MCCANDLESS RENFREW PA 285 50 F 43 50-59 5:39:09.85 20:26/M
699 CASSANDRA SMILEY GIBSONIA PA 411 44 F 75 40-49 5:39:41.10 20:28/M
700 SUNNY GRAYBILL ELIZABETHTOWN PA 174 36 F 121 30-39 5:40:00.32 20:29/M
 
Place Name City Bib No Age Gender Age Group Total Time Pace
701 STEPHANI FRYE PORT MATILDA PA 144 43 F 76 40-49 5:40:12.35 20:30/M
702 MELISSA JACKSON JERSEY SHORE PA 217 35 F 122 30-39 5:41:34.86 20:35/M
703 ALICIA MCCORMICK MUNCY PA 287 30 F 123 30-39 5:41:46.86 20:35/M
704 JOHNNY RYDER WILLIAMSPORT PA 947 42 M 127 40-49 5:41:49.55 20:35/M
705 BARB FEDELE MCELHATTAN PA 134 48 F 77 40-49 5:42:26.11 20:38/M
706 SUE JOHNSON CHICORA PA 221 51 F 44 50-59 5:42:26.71 20:38/M
707 BROCK JENSEN POLAND OH 753 34 M 123 30-39 5:43:16.69 20:41/M
708 MICHAELLA JENSEN POLAND OH 219 30 F 124 30-39 5:43:16.71 20:41/M
709 JEFF MILBURN SHIPPENSBURG PA 853 33 M 124 30-39 5:43:31.32 20:42/M
710 KATIE DECKARD STATE COLLEGE PA 99 22 F 43 20-29 5:44:09.80 20:44/M
711 JENNA GARVER PARADISE PA 153 21 F 44 20-29 5:45:47.11 20:50/M
712 KELLY KRIEG TARENTUM PA 249 36 F 125 30-39 5:45:55.11 20:50/M
713 JADE OAKES-HATT JERSEY SHORE PA 329 40 F 78 40-49 5:46:06.86 20:51/M
714 MICHAEL LEVAN LEWISBURG PA 812 34 M 125 30-39 5:46:54.10 20:54/M
715 MICAH WILLY PORT MATILDA PA 1061 37 M 126 30-39 5:46:54.37 20:54/M
716 ELIZABETH COBB MECHANICSBURG PA 84 23 F 45 20-29 5:47:11.61 20:55/M
717 WILLIAM O'DONNELL EAST HAMPTON NY 887 63 M 26 60-99 5:47:16.74 20:55/M
718 BARTOSZ PITRUS KING OF PRUSSIA PA 908 32 M 127 30-39 5:47:21.15 20:55/M
719 REBECCA DUNLAP LOCK HAVEN PA 116 36 F 126 30-39 5:47:51.87 20:57/M
720 BRIAN CORCELIUS LEWISTOWN PA 604 51 M 80 50-59 5:47:53.32 20:57/M
721 TIMOTHY PENTZ MONTGOMERY PA 899 29 M 36 20-29 5:48:29.27 21:00/M
722 CARLY DREIBELBIS STATE COLLEGE PA 111 28 F 46 20-29 5:48:37.59 21:00/M
723 KARA FULTZ COAL TOWNSHIP PA 147 27 F 47 20-29 5:48:42.47 21:00/M
724 LAURIE GARMAN MILL HALL PA 152 34 F 127 30-39 5:48:50.80 21:01/M
725 BERNICE BEILER MOHNTON PA 26 57 F 45 50-59 5:49:18.37 21:03/M
726 DAVID MOHAN STEWARTSTOWN PA 864 57 M 81 50-59 5:49:28.56 21:03/M
727 KATIE EXAS READING PA 128 64 F 5 60-99 5:50:03.84 21:05/M
728 REBECCA SCHREIBER PORTLAND OR 390 36 F 128 30-39 5:50:53.46 21:08/M
729 PAMELA KISKO WESTPORT PA 241 57 F 46 50-59 5:51:19.87 21:10/M
730 KARLY WHITE MT. GRETNA PA 486 18 F 11 1-19 5:51:25.62 21:10/M
731 MICHELLE DAWSON GREENCASTLE PA 97 42 F 79 40-49 5:51:56.37 21:12/M
732 JEAN-PIERRE BONASSO PITTSBURGH PA 562 39 M 128 30-39 5:52:11.47 21:13/M
733 MONICA FLETCHER PITTSBURGH PA 138 39 F 129 30-39 5:52:14.11 21:13/M
734 GREG GARTHE PORT MATILDA PA 684 35 M 129 30-39 5:53:07.53 21:16/M
735 SHARON POFF LOCK HAVEN PA 346 50 F 47 50-59 5:54:19.63 21:21/M
736 JOANNE HAUG JAMISON PA 190 51 F 48 50-59 5:54:19.80 21:21/M
737 JOHN MILLER ELVERSON PA 856 56 M 82 50-59 5:54:38.86 21:22/M
738 CHRISTY LONGACRE SINKING SPRING PA 269 31 F 130 30-39 5:54:39.13 21:22/M
739 JANE GRAHAM DANVILLE PA 172 38 F 131 30-39 5:54:42.52 21:22/M
740 MARK BETTS DANVILLE PA 548 45 M 128 40-49 5:54:42.73 21:22/M
741 VALERIE REYNOLDS PENNSDALE PA 370 33 F 132 30-39 5:54:50.63 21:23/M
742 CARLY QUAKE YARDLEY PA 359 22 F 48 20-29 5:55:44.30 21:26/M
743 ALEX RAGO ELIZABETHTOWN PA 361 22 F 49 20-29 5:55:44.50 21:26/M
744 DIANE O'DONNELL EAST HAMPTON NY 331 65 F 6 60-99 5:56:54.13 21:30/M
745 ELIZABETH SERPENTINE WEST CHESTER PA 393 38 F 133 30-39 5:58:53.88 21:37/M
746 ELLIE VANDERBECK READING PA 456 57 F 49 50-59 6:01:12.64 21:46/M
747 JOSEPH RUMSKY CLEARFIELD PA 944 42 M 129 40-49 6:01:15.14 21:46/M
748 MARIE GEUBTNER SEWICKLEY PA 157 60 F 7 60-99 6:01:32.25 21:47/M
749 TIANA MATTHEWS DUBOISTOWN PA 279 38 F 134 30-39 6:01:39.79 21:47/M
750 ANGELA SMITH LINDEN PA 413 40 F 80 40-49 6:01:39.89 21:47/M
751 STEPHEN BAREUTHER LANCASTER PA 533 53 M 83 50-59 6:01:46.86 21:48/M
752 BILL PATRICK BIRD IN HAND PA 896 51 M 84 50-59 6:01:50.51 21:48/M
753 RICK RANKIN NEW PROVIDENCE PA 916 56 M 85 50-59 6:02:24.39 21:50/M
754 DAVID STEWART PITTSBURGH PA 1008 55 M 86 50-59 6:02:46.24 21:51/M
755 DIANE STEWART PITTSBURGH PA 430 54 F 50 50-59 6:02:46.84 21:51/M
756 CARL UNDERCOFLER WOODLAND PA 1036 78 M 27 60-99 6:03:43.86 21:55/M
757 ANGELIA HALAJA-HENRIQUES HARRISBURG PA 182 48 F 81 40-49 6:03:44.14 21:55/M
758 RUSSELL WAGNER HARRISBURG PA 1043 64 M 28 60-99 6:04:07.39 21:56/M
759 DONNA WAGNER HARRISBURG PA 462 48 F 82 40-49 6:04:08.41 21:56/M
760 GALEN STONE BOWIE MD 1015 46 M 130 40-49 6:04:20.39 21:57/M
761 JOAN WELFLING LOCK HAVEN PA 478 58 F 51 50-59 6:04:59.14 21:59/M
762 BOB FARLEY LOCK HAVEN PA 656 59 M 87 50-59 6:06:26.40 22:04/M
763 TERESSA YAMASHITA LOGANTON PA 501 33 F 135 30-39 6:07:03.14 22:07/M
764 CINDY DONOVAN ALLENTOWN PA 109 56 F 52 50-59 6:08:27.21 22:12/M
765 JAMES CHAPMAN WILLOW GROVE PA 585 42 M 131 40-49 6:08:34.57 22:12/M
766 ANGIE PALOSKEY MONTGOMERY PA 334 30 F 136 30-39 6:08:48.96 22:13/M
767 BRYCE PALOSKEY MONTGOMERY PA 893 27 M 37 20-29 6:08:49.36 22:13/M
768 TAMI FOSBURG CENTERVILLE PA 140 48 F 83 40-49 6:09:46.81 22:17/M
769 SUSAN WOOLEY CENTERVILLE PA 499 41 F 84 40-49 6:09:48.40 22:17/M
770 DAN MITCHAM LONDON OH 862 46 M 132 40-49 6:09:48.83 22:17/M
771 JAMES CASEY COATESVILLE PA 583 68 M 29 60-99 6:10:22.40 22:19/M
772 DYLAN KOSTZEWA SINKING SPRING PA 790 12 M 18 1-19 6:10:46.95 22:20/M
773 KRISTEN SMITH CATASAUQUA PA 414 32 F 137 30-39 6:11:08.69 22:21/M
774 STEPHEN FUREY WILLIAMSPORT PA 679 40 M 133 40-49 6:11:14.90 22:22/M
775 MONICA KERGEL ANDREWS AFB MD 232 39 F 138 30-39 6:11:17.39 22:22/M
776 PAM SLUSSER BLOOMSBURG PA 410 36 F 139 30-39 6:11:39.40 22:23/M
777 CONNIE MUMMEY BLOOMSBURG PA 318 59 F 53 50-59 6:12:16.90 22:26/M
778 JENNIFER ALVAREZ WARRINGTON PA 5 36 F 140 30-39 6:12:34.90 22:27/M
779 FRANK BOCCHINO WILMINGTON DE 558 35 M 130 30-39 6:13:29.97 22:30/M
780 HAYLEY CARTER LITITZ PA 70 26 F 50 20-29 6:13:33.64 22:30/M
781 PETER KISHPAUGH LANCASTER PA 782 30 M 131 30-39 6:13:35.41 22:30/M
782 ROB BREWER LANCASTER PA 566 45 M 134 40-49 6:13:35.84 22:30/M
783 MIKE ZIMMERMAN SINKING SPRING PA 1077 35 M 132 30-39 6:14:23.62 22:33/M
784 APRIL ZIMMERMAN SINKING SPRING PA 506 36 F 141 30-39 6:14:24.22 22:33/M
785 PATRICK VILLELLA PUNXSUTAWNEY PA 1040 52 M 88 50-59 6:14:31.41 22:34/M
786 EMILY SICKBERT INDIANAPOLIS IN 403 26 F 51 20-29 6:14:47.16 22:35/M
787 LEXIS BUTLER BELLEFONTE PA 64 26 F 52 20-29 6:14:47.60 22:35/M
788 MICHAEL HAFFLEY LOCK HAVEN PA 718 48 M 135 40-49 6:15:16.66 22:36/M
789 KYLIE BENDER GRATZ PA 27 35 F 142 30-39 6:15:24.16 22:37/M
790 AMANDA SMITH LYKENS PA 412 33 F 143 30-39 6:15:24.54 22:37/M
791 KIMBERLEY MCPEAKE ETOBICOKE ON 292 48 F 85 40-49 6:15:45.91 22:38/M
792 STEPHANIE PROBERT RENOVO PA 355 36 F 144 30-39 6:16:36.60 22:41/M
793 YOLANDA PASKOVICH FRANKLIN PARK NJ 335 39 F 145 30-39 6:16:39.45 22:41/M
794 BROOKE SCHUPP ERIE PA 391 24 F 53 20-29 6:17:04.43 22:43/M
795 DAN SMITH ERIE PA 987 26 M 38 20-29 6:17:05.41 22:43/M
796 GENEVIEVE RIKER ENDICOTT NY 372 42 F 86 40-49 6:18:13.91 22:47/M
797 ERNIE DONOVAN ALLENTOWN PA 635 55 M 89 50-59 6:19:35.66 22:52/M
798 ED DESANTIS BINGHAMTON NY 623 52 M 90 50-59 6:20:29.37 22:55/M
799 ROBERT CUMMINGS EAST HAMPTON NY 614 56 M 91 50-59 6:20:39.78 22:56/M
800 PJ SWAILS GERMANTOWN MD 443 48 F 87 40-49 6:21:00.11 22:57/M
 
Place Name City Bib No Age Gender Age Group Total Time Pace
801 LISA GOURLEY PUNXSUTAWNEY PA 171 57 F 54 50-59 6:21:10.66 22:58/M
802 TRESSA TRUNZO BROCKWAY PA 453 64 F 8 60-99 6:21:10.87 22:58/M
803 MONIKA MILLER WILLIAMSPORT PA 303 35 F 146 30-39 6:21:55.17 23:00/M
804 BRIAN FRISCH ALBURTIS PA 676 44 M 136 40-49 6:22:30.79 23:03/M
805 BARRY DOBIL OREFIELD PA 632 38 M 133 30-39 6:22:35.74 23:03/M
806 ADAM GIAQUINTO ALLENTOWN PA 693 37 M 134 30-39 6:22:35.88 23:03/M
807 MELINDA LEWIS HUGHESVILLE PA 265 48 F 88 40-49 6:23:41.15 23:07/M
808 JIM PETRUCCI MT CARMEL PA 903 49 M 137 40-49 6:23:49.52 23:07/M
809 PHIL HESSER CROCHERON MD 733 64 M 30 60-99 6:23:50.74 23:07/M
810 SUSAN TAYLOR BELLEFONTE PA 445 57 F 55 50-59 6:26:12.52 23:16/M
811 LISA BEATON DINGMANS FERRY PA 18 29 F 54 20-29 6:29:01.18 23:26/M
812 CHERYL MAXFIELD SOUTH PLAINFIELD NJ 281 36 F 147 30-39 6:29:34.47 23:28/M
813 WENDY CHAMPION CRANBURY NJ 72 34 F 148 30-39 6:29:35.28 23:28/M
814 LEIGH MOORE STATE COLLEGE PA 309 52 F 56 50-59 6:32:27.41 23:38/M
815 MARGARET MCMUNIGLE VENANGO PA 290 54 F 57 50-59 6:32:48.99 23:40/M
816 ROBERT MCMUNIGLE VENANGO PA 846 55 M 92 50-59 6:32:50.81 23:40/M
817 JAMES GARTHE PETERSBURG PA 685 65 M 31 60-99 6:33:21.44 23:42/M
818 MELISSA GREEN RENOVO PA 177 38 F 149 30-39 6:34:06.94 23:44/M
819 JENNIFER DEVORE MONTOURSVILLE PA 103 39 F 150 30-39 6:34:07.69 23:45/M
820 MISTY ZIMMERMAN WILCOX PA 507 47 F 89 40-49 6:37:30.84 23:57/M
821 CINDY MILLER JOHNSONBURG PA 299 46 F 90 40-49 6:37:31.48 23:57/M
822 MEGAN WALDMAN WILLIAMSPORT PA 464 26 F 55 20-29 6:37:37.15 23:57/M
823 JUAN GAVIRIA WILLIAMSPORT PA 687 27 M 39 20-29 6:37:48.10 23:58/M
824 MAHA GABALLA WILLIAMSPORT PA 148 26 F 56 20-29 6:38:00.92 23:59/M
825 LISA STAFFORD WARRENTON VA 424 44 F 91 40-49 6:38:38.69 24:01/M
826 STEPHANIE FORD POLK PA 139 35 F 151 30-39 6:38:42.70 24:01/M
827 MAGGIE BIXLER LEBANON PA 34 19 F 12 1-19 6:38:45.39 24:01/M
828 JULIANNE KERN SHOEMAKERSVILLE PA 233 38 F 152 30-39 6:38:46.81 24:01/M
829 MISTY JO BLOWERS MONROETON PA 39 39 F 153 30-39 6:39:19.70 24:03/M
830 PAM MOORE BEL AIR MD 310 55 F 58 50-59 6:39:31.91 24:04/M
831 GEORGE SANDERS MALVERN PA 950 69 M 32 60-99 6:39:48.69 24:05/M
832 CHANTAL BLESSING YORK PA 37 26 F 57 20-29 6:39:53.70 24:05/M
833 JULIE KONANAHALLI CLEVELAND OH 246 41 F 92 40-49 6:40:18.41 24:07/M
834 JOHN BUCCHIERI CLEVELAND OH 570 50 M 93 50-59 6:40:18.41 24:07/M
835 STEVE AKE LEWISTOWN PA 513 50 M 94 50-59 6:40:33.86 24:08/M
836 ERNIE DONOVAN CATASAUQUA PA 634 36 M 135 30-39 6:40:38.32 24:08/M
837 DONOVAN BLESSING YORK PA 557 27 M 40 20-29 6:40:38.70 24:08/M
838 JACOB WALTERMIRE LEAVITTSBURG OH 1048 26 M 41 20-29 6:40:39.15 24:08/M
839 JIM HYLAND JERSEY SHORE PA 746 52 M 95 50-59 6:40:43.60 24:08/M
840 COLETTE PILKUS FAIRLESS HILLS PA 342 33 F 154 30-39 6:41:07.70 24:10/M
841 LESLIE CLUKEY LOCK HAVEN PA 83 50 F 59 50-59 6:41:25.27 24:11/M
842 NICOLE CALLAHAN MILL HALL PA 66 23 F 58 20-29 6:41:25.94 24:11/M
843 COLLEEN CHESLEY WARRENTON VA 76 46 F 93 40-49 6:41:29.45 24:11/M
844 PAIGE BECKER RIEGELSVILLE PA 23 12 F 13 1-19 6:43:10.29 24:17/M
845 LEA BECKER RIEGELSVILLE PA 22 46 F 94 40-49 6:43:21.67 24:18/M
846 ABBY KLEIN OTTSVILLE PA 242 17 F 14 1-19 6:43:32.63 24:19/M
847 FIDEL CRUZ ALEXANDRIA VA 612 45 M 138 40-49 6:45:33.96 24:26/M
848 LISA WAITE BELLEFONTE PA 463 37 F 155 30-39 6:47:26.91 24:33/M
849 TOM SFERRATORE REGO PARK NY 968 40 M 139 40-49 6:47:28.95 24:33/M
850 NADINE PIROGOW REGO PARK NY 344 38 F 156 30-39 6:47:29.15 24:33/M
851 MARY ELLEN SHOW BELLEFONTE PA 401 43 F 95 40-49 6:47:31.37 24:33/M
852 ANN BOLAND GROVE CITY PA 42 43 F 96 40-49 6:48:18.33 24:36/M
853 RICK EDLER WILLIAMSPORT PA 646 58 M 96 50-59 6:50:16.57 24:43/M
854 HEIDI EDLER WILLIAMSPORT PA 121 49 F 97 40-49 6:50:17.46 24:43/M
855 TRACY CLAYTON HUGHESVILLE PA 81 36 F 157 30-39 6:51:18.93 24:47/M
856 MIRANDA WINTER MUNCY PA 496 23 F 59 20-29 6:51:22.38 24:47/M
857 ANDY CLAYTON HUGHESVILLE PA 595 37 M 136 30-39 6:51:23.60 24:47/M
858 MICHELE HOBBS SAYRE PA 205 46 F 98 40-49 6:51:35.97 24:48/M
859 LISA MILLER ELVERSON PA 302 57 F 60 50-59 6:51:56.93 24:49/M
860 RICK YONKIN RENOVO PA 1073 57 M 97 50-59 6:52:49.53 24:52/M
861 JODI VANDERGRIFT WELLSBORO PA 457 46 F 99 40-49 6:52:49.68 24:52/M
862 RUTH PRIESTER WILLIAMSPORT PA 353 47 F 100 40-49 6:54:06.96 24:57/M
863 HUNTER FREER AUSTIN PA 675 16 M 19 1-19 6:54:52.52 25:00/M
864 ERYN FIEBIG EMPORIUM PA 137 34 F 158 30-39 6:55:06.31 25:00/M
865 ERIC FIEBIG EMPORIUM PA 664 40 M 140 40-49 6:55:06.71 25:00/M
866 TY STITT WHITE OAK PA 1011 46 M 141 40-49 6:55:09.72 25:01/M
867 STACY STRICKER READING PA 441 30 F 159 30-39 6:56:16.30 25:05/M
868 BRANDY WAWRZYNIAK SINKING SPRING PA 471 36 F 160 30-39 6:56:17.12 25:05/M
869 DAVID KAHLER DANVILLE PA 761 62 M 33 60-99 6:57:05.21 25:08/M
870 JENNIFER DRIGGERS MIFFLINBURG PA 113 40 F 101 40-49 6:57:05.43 25:08/M
871 SANDY REDCAY MOHNTON PA 362 60 F 9 60-99 6:58:23.17 25:12/M
872 LUKE CLORAN HAVERTOWN PA 598 27 M 42 20-29 6:59:35.83 25:17/M
873 LUKE CLORAN HAVERTOWN PA 597 51 M 98 50-59 6:59:36.45 25:17/M
874 ERICA SPICER BELLEFONTE PA 422 38 F 161 30-39 7:00:42.66 25:21/M
875 MARY FRISBIE WAVERLY NY 143 47 F 102 40-49 7:00:46.47 25:21/M
876 KEVIN CHATARY TARENTUM PA 587 40 M 142 40-49 7:03:13.13 25:30/M
877 JEFF SOROKA HARVEYS LAKE PA 999 38 M 137 30-39 7:03:13.47 25:30/M
878 STEPHANIE MITCHELL WILLIAMSPORT PA 307 40 F 103 40-49 7:03:42.48 25:31/M
879 TIM FRONK WILLIAMSPORT PA 674 58 M 99 50-59 7:06:21.13 25:41/M
880 TAB BOWES LOCK HAVEN PA 48 49 F 104 40-49 7:06:27.49 25:41/M
881 LARRY ULAKY NORTH HUNTINGDON PA 1035 45 M 143 40-49 7:06:28.68 25:41/M
882 BECKY PROCTOR MILL HALL PA 357 46 F 105 40-49 7:06:29.72 25:42/M
883 SCOTT YONKIN EDINBORO PA 1074 49 M 144 40-49 7:10:05.23 25:55/M
884 KIM REED MERCER PA 364 52 F 61 50-59 7:13:48.49 26:08/M
885 TISHA CHASE ERIE PA 74 42 F 106 40-49 7:16:22.25 26:17/M
886 BILL GILBERT ERIE PA 695 55 M 100 50-59 7:16:23.29 26:17/M
887 BARB DIPIETRO WINDSOR PA 107 62 F 10 60-99 7:18:37.68 26:25/M
888 BRYAN WILSON JAMESTOWN PA 1062 40 M 145 40-49 7:20:55.50 26:34/M
889 C. EDWARD MITCHELL MONTOURSVILLE PA 863 72 M 34 60-99 7:22:25.50 26:39/M
890 JACQUELINE BAREUTHER LANCASTER PA 14 53 F 62 50-59 7:26:38.25 26:54/M
891 KAREN DICKERSON LITITZ PA 104 53 F 63 50-59 7:26:43.60 26:55/M
892 SHANNON WILSON JAMESTOWN PA 495 38 F 162 30-39 7:27:31.11 26:58/M
893 KATIE HRDLICKA JAMESTOWN PA 211 31 F 163 30-39 7:29:34.73 27:05/M
894 JEFF HRDLICKA JAMESTOWN PA 741 31 M 138 30-39 7:29:35.16 27:05/M
895 STEVEN TALARCEK HUDSON OH 1024 29 M 43 20-29 7:29:37.58 27:05/M
896 MICHELLE GAVITT HUGHESVILLE PA 154 40 F 107 40-49 7:30:21.88 27:08/M
897 CATHERINE BOCKHEIM RANDOLPH NY 41 56 F 64 50-59 7:33:51.74 27:20/M
898 KAYLA SAXON MONROETON PA 385 27 F 60 20-29 7:33:57.77 27:21/M
899 KAREN WERTZ PORT MATILDA PA 482 45 F 108 40-49 7:33:58.23 27:21/M
900 CHARLES BURZYNSKI WILLISMSPORT PA 576 66 M 35 60-99 7:36:23.57 27:30/M
 
Place Name City Bib No Age Gender Age Group Total Time Pace
901 KATHY GILLEN LOCK HAVEN PA 161 62 F 11 60-99 7:36:25.97 27:30/M
902 ASHLEY CARESPODI NEW YORK NY 68 29 F 61 20-29 7:36:40.83 27:31/M
903 NICOLE WEST ASHBURN VA 483 28 F 62 20-29 7:36:52.37 27:31/M
904 CHELSEY CHAPLAIN MILL HALL PA 73 16 F 15 1-19 7:39:53.87 27:42/M
905 ROBERT ETTERS MILL HALL PA 653 44 M 146 40-49 7:39:54.89 27:42/M
906 AMANDA KENNEDY MUNCY PA 227 28 F 63 20-29 7:41:05.94 27:47/M
907 JENNA KENNEDY MONTOURSVILLE PA 229 25 F 64 20-29 7:41:07.97 27:47/M
908 CORY BLACK WILLIAMSPORT PA 552 22 M 44 20-29 7:41:23.23 27:48/M
909 SARAH WOODWARD BELLEFONTE PA 498 36 F 164 30-39 7:43:17.53 27:55/M
910 NATHAN WOODWARD BELLEFONTE PA 1067 43 M 147 40-49 7:43:18.97 27:55/M
911 JOSHUA SCHAUMAN CASSADAGA NY 958 34 M 139 30-39 7:43:49.53 27:56/M
912 MARY ANN MASON SINCLAIRVILLE NY 278 20 F 65 20-29 7:43:50.76 27:57/M
913 AUSTIN LEWIS HUGHESVILLE PA 816 14 M 20 1-19 7:43:58.80 27:57/M
914 RACHEL FRANCIS OLYPHANT PA 142 33 F 165 30-39 7:44:03.36 27:57/M
915 CHRISTINA WEEDER MILL HALL PA 475 49 F 109 40-49 7:44:03.78 27:57/M
916 JACK STITT WHITE OAK PA 1010 75 M 36 60-99 7:46:31.27 28:06/M
917 FRANK SHYMATTA MONONGAHELA PA 977 65 M 37 60-99 7:46:31.27 28:06/M
918 MICHELLE GRAZIANO HAMPTON NJ 175 31 F 166 30-39 7:46:54.23 28:08/M
919 MIKE NYE CAMP HILL PA 886 42 M 148 40-49 7:50:31.26 28:21/M
920 THAI SNYDER MILTON PA 997 21 M 45 20-29 7:51:12.41 28:23/M
921 DAWN M NEHLS MILTON PA 324 41 F 110 40-49 7:51:13.29 28:23/M
922 ALEXIS BECKER RIEGELSVILLE PA 21 16 F 16 1-19 8:01:12.63 28:59/M
923 MARCI GOHN WRIGHTSVILLE PA 164 42 F 111 40-49 8:01:36.77 29:01/M
924 NIKKI BOWEN KINTNERSVILLE PA 46 40 F 112 40-49 8:01:54.23 29:02/M
925 CHARLIZE KEPLER RENOVO PA 230 11 F 17 1-19 8:01:56.27 29:02/M
926 ERNIE CROCK BELLEFONTE PA 610 38 M 140 30-39 8:04:23.64 29:11/M
927 SETH DECKER WILLIAMSPORT PA 620 34 M 141 30-39 8:10:58.90 29:35/M
928 LANGDON GILLEN LOCK HAVEN PA 696 30 M 142 30-39 8:17:25.18 29:58/M
929 MARISA CROTEAU TROUT RUN PA 91 30 F 167 30-39 8:24:26.71 30:23/M
930 DANIELLE SULLIVAN WILLIAMSPORT PA 442 30 F 168 30-39 8:24:28.14 30:23/M
931 HARM REXROTH WINDSOR PA 928 56 M 101 50-59 8:39:34.81 31:18/M
932 MICHELLE BONANTI FAIRVIEW PA 43 46 F 113 40-49 9:05:49.88 32:53/M
933 PAULA TOMASICK FAIRVIEW PA 449 34 F 169 30-39 9:05:50.40 32:53/M
934 ELIZABETH TONER ELVERSON PA 450 49 F 114 40-49 9:15:58.72 33:30/M
935 AMY DAVENPORT EPHRATA PA 96 27 F 66 20-29 9:16:19.85 33:31/M
Top  

Hyner 50K

Place Name City Bib No Age Gender Age Group Total Time Pace
1 MICHAEL DAIGEAUN PHILADELPHIA PA 1567 36 M 1 30-39 4:32:11.98 8:57/M
2 ADAM RUSSELL ROME PA 1745 37 M 2 30-39 4:37:02.12 9:07/M
3 COLE CROSBY 1809 27 M 1 20-29 4:47:27.78 9:27/M
4 CLAYTON BOUCHARD LYKENS PA 1526 42 M 1 40-49 4:53:38.49 9:40/M
5 JOEL NOAL HOLLIDAYSBURG PA 1716 53 M 1 50-59 4:57:23.86 9:47/M
6 JONATHAN LANTZ NEW HOLLAND PA 1671 31 M 3 30-39 5:00:07.16 9:52/M
7 DAVID STANGO ASTON PA 1769 39 M 4 30-39 5:10:00.18 10:12/M
8 REBECCA LEWANDOWSKI ELKTON MD 1675 30 F 1 30-39 5:10:12.18 10:12/M
9 SCOTT LESH MECHANICSBURG PA 1674 32 M 5 30-39 5:11:37.43 10:15/M
10 JEFF NELSON TITUSVILLE PA 1713 51 M 2 50-59 5:13:44.68 10:19/M
11 PHILLIP PAWLUKOVICH FOREST HILL MD 1725 37 M 6 30-39 5:16:12.94 10:24/M
12 DAVID LANTZ LEOLA PA 1670 27 M 2 20-29 5:18:51.65 10:29/M
13 RYAN COOPER MAPLE GLEN PA 1561 41 M 2 40-49 5:24:08.92 10:40/M
14 MARK FREY PITTSBURGH PA 1595 36 M 7 30-39 5:27:07.56 10:46/M
15 DANNY MOWERS CHAMBERSBURG PA 1709 38 M 8 30-39 5:28:43.20 10:49/M
16 JIM WENGER BEAVERTOWN PA 1791 46 M 3 40-49 5:29:26.22 10:50/M
17 AMOS DESJARDINS ALEXANDRIA VA 1573 34 M 9 30-39 5:30:53.27 10:53/M
18 CHRIS COULSTON ERIE PA 1563 48 M 4 40-49 5:31:16.66 10:54/M
19 SCOTT BAIR MILL HALL PA 1509 38 M 10 30-39 5:31:51.38 10:55/M
20 ALICIA RICH INDIANAPOLIS IN 1737 30 F 2 30-39 5:35:34.75 11:02/M
21 AARON ILES MONROEVILLE NJ 1635 24 M 3 20-29 5:38:45.74 11:09/M
22 WILLIAM HUBER ZELIENOPLE PA 1631 31 M 11 30-39 5:39:03.74 11:09/M
23 JOSHUA GAVITT HUGHESVILLE PA 1601 41 M 5 40-49 5:41:02.24 11:13/M
24 MATTHEW RUSSELL ALLENTOWN PA 1746 45 M 6 40-49 5:42:57.30 11:17/M
25 AARON ELLISON ELLICOTT CITY MD 1582 40 M 7 40-49 5:42:59.69 11:17/M
26 RANDE BROWN BEDFORD PA 1533 45 M 8 40-49 5:45:37.90 11:22/M
27 LUCAS HARRIS STATE COLLEGE PA 1619 26 M 4 20-29 5:46:02.49 11:23/M
28 SCOTT GARMAN MILL HALL PA 1599 40 M 9 40-49 5:46:49.66 11:25/M
29 MICHAEL FATIGANTE CANONSBURG PA 1586 30 M 12 30-39 5:48:05.66 11:27/M
30 BRIAN BUDDEMEYER PITTSBURGH PA 1539 39 M 13 30-39 5:48:39.62 11:28/M
31 JESS GOCKLEY STEVENS PA 1604 35 F 3 30-39 5:49:14.26 11:29/M
32 RYAN ESPULGAR ILOILO CITY PHL 1585 34 M 14 30-39 5:49:18.44 11:29/M
33 CARLOS DARBY PENN HILLS PA 1568 27 M 5 20-29 5:49:28.76 11:30/M
34 CHAD ANGLE PALMYRA PA 1504 45 M 10 40-49 5:50:42.25 11:32/M
35 KELLY KENNEDY LEMONT PA 1650 43 M 11 40-49 5:51:03.14 11:33/M
36 RUSS DRESHER HUDSON MA 1576 34 M 15 30-39 5:51:35.85 11:34/M
37 JON RODGERS ERIE PA 1739 34 M 16 30-39 5:51:49.26 11:34/M
38 JEFFREY SPENCER MILLERSVILLE MD 1768 41 M 12 40-49 5:53:01.27 11:37/M
39 CHRIS REED ALLENTOWN PA 1733 43 M 13 40-49 5:54:20.52 11:39/M
40 HUGH MACMULLAN SWARTHMORE PA 1684 48 M 14 40-49 5:54:45.23 11:40/M
41 TYLER SNYDER EAST FREEDOM PA 1765 25 M 6 20-29 5:56:03.43 11:43/M
42 AARON HORRELL BELLE VERNON PA 1630 34 M 17 30-39 5:56:33.93 11:44/M
43 ALEX VARGAS PHILADELPHIA PA 1781 35 M 18 30-39 5:56:42.78 11:44/M
44 LORI COOPER MAPLE GLEN PA 1560 40 F 1 40-49 5:57:08.23 11:45/M
45 MICHAEL JAY ADAMSTOWN PA 1638 28 M 7 20-29 5:57:31.78 11:46/M
46 THOMAS MCNERNEY WILLIAMSPORT PA 1694 41 M 15 40-49 5:59:39.65 11:50/M
47 TIMOTHY HERSHEY MALDEN MA 1625 35 M 19 30-39 6:01:40.20 11:54/M
48 JACOB KOSKER SENECA PA 1661 38 M 20 30-39 6:02:02.53 11:55/M
49 DAN MUNN BIRDSBORO PA 1711 36 M 21 30-39 6:03:49.78 11:58/M
50 JASON MARUCCIO 1806 39 M 22 30-39 6:04:15.74 11:59/M
51 JOHANNA OHM STATE COLLEGE PA 1721 24 F 1 20-29 6:04:28.98 11:59/M
52 CLINT GYORY ALLENTOWN PA 1616 25 M 8 20-29 6:07:57.29 12:06/M
53 PETER KOZLOWSKI CORAOPOLIS PA 1663 36 M 23 30-39 6:09:34.51 12:09/M
54 TOMAS CASTILLO PITTSBURGH PA 1546 28 M 9 20-29 6:10:15.80 12:11/M
55 HANS SCHNEIDER LEBANON PA 1751 49 M 16 40-49 6:10:56.99 12:12/M
56 ROTH REASON DANVILLE PA 1732 38 M 24 30-39 6:13:09.78 12:16/M
57 CORY WEST HORSEHEADS NY 1792 40 M 17 40-49 6:13:19.31 12:17/M
58 ANGUS LANE ANNAPOLIS MD 1667 40 M 18 40-49 6:15:59.81 12:22/M
59 KORTA YUASA DANVILLE PA 1804 48 M 19 40-49 6:16:54.54 12:24/M
60 JENNIFER FLEMING STATE COLLEGE PA 1592 41 F 2 40-49 6:17:07.74 12:24/M
61 JEFF CALVERT PORT MATILDA PA 1542 50 M 3 50-59 6:17:46.30 12:26/M
62 JOEL STROUSE LOGANTON PA 1774 46 M 20 40-49 6:19:48.73 12:30/M
63 GREG LANGE JERSEY SHORE PA 1669 55 M 4 50-59 6:21:10.32 12:32/M
64 PETE GROTH DOUGLASSVILLE PA 1613 47 M 21 40-49 6:22:07.28 12:34/M
65 GUY BOISCLAIR ST HILAIRE QC 1523 51 M 5 50-59 6:22:45.45 12:35/M
66 HENRY PECK LUTHERVILLE MD 1726 59 M 6 50-59 6:22:59.64 12:36/M
67 TODD MICKOLWIN RICHMOND HILL ON 1699 48 M 22 40-49 6:23:05.54 12:36/M
68 DEVON MATTHEWS PITTSBURGH PA 1689 28 M 10 20-29 6:23:17.95 12:36/M
69 JENNIFER BRUNET HARRINGTON PARK NJ 1537 45 F 3 40-49 6:23:24.87 12:37/M
70 WILL ZACHRICH FREDONIA PA 1805 37 M 25 30-39 6:23:40.81 12:37/M
71 JIM EBERLY MORRIS PA 1579 42 M 23 40-49 6:23:58.79 12:38/M
72 TIM SHEALER YORK PA 1757 43 M 24 40-49 6:26:17.83 12:42/M
73 ERMAN TASCI BETHLEHEM PA 1776 39 M 26 30-39 6:26:42.78 12:43/M
74 STACEY HIBBLER LOCK HAVEN PA 1627 52 M 7 50-59 6:28:07.72 12:46/M
75 TRACY ALLEN WEST LAFAYETTE OH 1503 52 M 8 50-59 6:28:16.28 12:46/M
76 MARC GRAVATT GARDINER NY 1610 49 M 25 40-49 6:28:26.84 12:47/M
77 TOM KAPLAN NEW PALTZ NY 1643 54 M 9 50-59 6:28:27.87 12:47/M
78 DAVID HOELCLE ANGOLA NY 1628 39 M 27 30-39 6:28:29.83 12:47/M
79 ADAM KOLB LIBERTY PA 1657 34 M 28 30-39 6:31:39.34 12:53/M
80 SAMUEL BONIKOWSKY GREENVILLE SC 1525 24 M 11 20-29 6:32:13.92 12:54/M
81 LORI JOHNSON RED HILL PA 1639 52 F 1 50-59 6:32:22.34 12:54/M
82 SEAN MACMILLEN MILL HALL PA 1683 42 M 26 40-49 6:32:51.56 12:55/M
83 DANIEL YOUNG ERIE PA 1803 55 M 10 50-59 6:33:31.84 12:57/M
84 JOHN GRAF BALLSTON LAKE NY 1608 50 M 11 50-59 6:33:33.96 12:57/M
85 MELISSA PASTORE FAIRVIEW PA 1724 55 F 2 50-59 6:33:36.84 12:57/M
86 DANIEL KAUPP MOODUS CT 1645 38 M 29 30-39 6:34:54.28 12:59/M
87 RYAN GRAFF ROYERSFORD PA 1609 41 M 27 40-49 6:35:01.59 13:00/M
88 STACY KOTSKO COLFAX WV 1662 35 F 4 30-39 6:35:17.36 13:00/M
89 MARK MILLER PICTURE ROCKS PA 1702 46 M 28 40-49 6:35:28.59 13:01/M
90 MIKE BAHEL AMAGANSETT NY 1507 49 M 29 40-49 6:36:58.95 13:03/M
91 JAMES COMPTON WILLOW GROVE PA 1556 39 M 30 30-39 6:37:02.82 13:04/M
92 ADAM WALTON YORK PA 1785 32 M 31 30-39 6:37:09.60 13:04/M
93 BENJAMIN MAZUR GALLITZIN PA 1690 43 M 30 40-49 6:37:29.81 13:05/M
94 SHANE LAUDENSLAGER SOUTH WILLIAMSPORT PA 1672 37 M 32 30-39 6:37:34.54 13:05/M
95 CHRIS KEITH MOHNTON PA 1647 36 M 33 30-39 6:37:46.33 13:05/M
96 JOSEPH CAVARRETTA PITTSBURGH PA 1547 27 M 12 20-29 6:38:06.78 13:06/M
97 GEORGE CONRAD HUNTINGDON PA 1558 39 M 34 30-39 6:38:51.10 13:07/M
98 JOSEPH HESS MOUNT JOY PA 1626 39 M 35 30-39 6:40:57.48 13:11/M
99 MATT BRUBAKER COLLEGEVILLE PA 1534 42 M 31 40-49 6:40:58.49 13:11/M
100 DOUG MASSENGALE CATONSVILLE MD 1688 40 M 32 40-49 6:41:26.35 13:12/M
 
Place Name City Bib No Age Gender Age Group Total Time Pace
101 THAD WILL PORT MATILDA PA 1795 43 M 33 40-49 6:41:48.26 13:13/M
102 KATHRYN KOETJE-SIMIN STATE COLLEGE PA 1656 44 F 4 40-49 6:42:14.64 13:14/M
103 JANINE GUSZTAW WIND GAP PA 1614 50 F 3 50-59 6:42:22.10 13:14/M
104 WILLIAM KELLER LANSDALE PA 1648 33 M 36 30-39 6:43:05.86 13:16/M
105 KRZYSZTOF JAMROZ MENTOR OH 1637 39 M 37 30-39 6:43:49.94 13:17/M
106 SUZIE SPANGLER ANNAPOLIS MD 1766 45 F 5 40-49 6:44:10.61 13:18/M
107 EDDIE CARRIGG EASTLAKE OH 1545 50 M 12 50-59 6:45:28.97 13:20/M
108 MICHELLE BALDWIN CARLISLE PA 1513 36 F 5 30-39 6:45:48.36 13:21/M
109 MIKE FRASER MONROEVILLE NJ 1594 51 M 13 50-59 6:46:38.33 13:23/M
110 CHAD WOODRUFF WOODSTOWN NJ 1800 33 M 38 30-39 6:46:38.53 13:23/M
111 TODD YINGLING HANOVER PA 1802 38 M 39 30-39 6:46:46.43 13:23/M
112 JIM LITTLEWOOD WEST CHESTER PA 1679 29 M 13 20-29 6:48:02.20 13:25/M
113 RENEE CALVERT PORT MATILDA PA 1543 49 F 6 40-49 6:48:12.96 13:26/M
114 CHRISTIAN KURPIEL-WAKAMIYA STATE COLLEGE PA 1664 37 M 40 30-39 6:48:14.79 13:26/M
115 BRENT LEWIS HERSHEY PA 1676 45 M 34 40-49 6:48:16.15 13:26/M
116 CASEY FISHER ABINGDON MD 1590 33 M 41 30-39 6:48:27.55 13:26/M
117 JON CRAYS WARREN OH 1564 45 M 35 40-49 6:50:52.36 13:31/M
118 APRIL MEEHLEDER WILLIAMSPORT PA 1697 32 F 6 30-39 6:51:55.35 13:33/M
119 TODD LEWIS ALTOONA PA 1677 41 M 36 40-49 6:55:41.13 13:40/M
120 GARY JONES MILL HALL PA 1641 49 M 37 40-49 6:55:54.35 13:41/M
121 HELENE STRUTKO HARVEY'S LAKE PA 1775 37 F 7 30-39 6:56:27.89 13:42/M
122 THOMAS CHOBOT READING PA 1549 60 M 1 60-99 6:57:03.85 13:43/M
123 LAMAR FELIX CORAOPOLIS PA 1588 33 M 42 30-39 6:57:13.78 13:43/M
124 JOE MCQUADE CUMBERLAND MD 1696 41 M 38 40-49 6:59:01.88 13:47/M
125 JONATHAN NICHOLSON POTTSTOWN PA 1714 43 M 39 40-49 6:59:16.52 13:48/M
126 DARRIN KNEPPER MECHANICSBURG PA 1654 46 M 40 40-49 6:59:39.87 13:48/M
127 KARINA GATES ORANGEVILLE PA 1600 39 F 8 30-39 6:59:50.60 13:49/M
128 BRIAN STONES READING PA 1773 40 M 41 40-49 7:00:02.39 13:49/M
129 RALPH SMITH ALTOONA PA 1763 44 M 42 40-49 7:00:24.49 13:50/M
130 WAYNE SIGLER COOPERSBURG PA 1759 40 M 43 40-49 7:01:04.64 13:51/M
131 PHILIP WESTLAKE MURRYSVILLE PA 1793 44 M 44 40-49 7:01:09.61 13:51/M
132 RAY DOUGLAS MILTON PA 1575 49 M 45 40-49 7:01:21.17 13:52/M
133 MARY BANIAK KEYSER WV 1515 43 F 7 40-49 7:01:42.64 13:52/M
134 MARK WASHBURN PARKER CO 1788 35 M 43 30-39 7:05:59.29 14:01/M
135 DAVID WISE FLAGTOWN NJ 1797 45 M 46 40-49 7:06:16.75 14:01/M
136 CALLIE KING HONEY BROOK PA 1652 25 F 2 20-29 7:06:16.96 14:01/M
137 LARRY CREVELING ABERDEEN NC 1565 63 M 2 60-99 7:06:53.64 14:03/M
138 CHRISTOPHER COON TOWANDA PA 1559 29 M 14 20-29 7:07:25.26 14:04/M
139 JASON DUNSAVAGE ETTERS PA 1577 42 M 47 40-49 7:07:41.14 14:04/M
140 JON HARROLD YORK PA 1620 31 M 44 30-39 7:08:58.83 14:07/M
141 MICHAEL SCHAFFER MENTOR OH 1749 54 M 14 50-59 7:09:24.83 14:08/M
142 JOSH BAHR MONTOURSVILLE PA 1508 41 M 48 40-49 7:10:02.15 14:09/M
143 JOSHUA MILLER MCVEYTOWN PA 1700 31 M 45 30-39 7:11:07.39 14:11/M
144 SARAH STIVER MCVEYTOWN PA 1771 25 F 3 20-29 7:11:07.60 14:11/M
145 DON RILEY PHOENIX MD 1738 52 M 15 50-59 7:11:55.65 14:12/M
146 TIM FLAHERTY ALLISON PARK PA 1591 51 M 16 50-59 7:13:45.57 14:16/M
147 LUCAS CAIN JERSEY SHORE PA 1541 29 M 15 20-29 7:14:04.15 14:17/M
148 ADAM MORRILL BERGEN NY 1707 17 M 1 1-19 7:14:59.91 14:19/M
149 DAVID BECKER RIEGELSVILLE PA 1520 47 M 49 40-49 7:15:51.41 14:20/M
150 LEO OCONNOR FALCONER NY 1720 48 M 50 40-49 7:16:58.93 14:22/M
151 CHRISTOPHER MEREDITH ARDMORE PA 1698 42 M 51 40-49 7:17:41.66 14:24/M
152 CASSANDRA LIZZA LANCASTER PA 1680 35 F 9 30-39 7:18:36.92 14:26/M
153 GARY LONG READING PA 1801 52 M 17 50-59 7:19:36.15 14:28/M
154 TAMI SARI POLK PA 1748 38 F 10 30-39 7:19:42.64 14:28/M
155 TODD SAILER HOLLAND PA 1747 42 M 52 40-49 7:19:56.90 14:28/M
156 JENNIFER KLINE BLOOMSBURG PA 1653 31 F 11 30-39 7:20:03.91 14:29/M
157 JARED ULTRAMAN SHOLLEY MIFFLINBURG PA 1758 37 M 46 30-39 7:21:15.63 14:31/M
158 JOHN SLINGSHOT UEHLING MIFFLINBURG PA 1744 55 M 18 50-59 7:21:25.83 14:31/M
159 HEATHER CAPUTO EAST HAMPTON NY 1544 2 F 1 1-19 7:21:48.77 14:32/M
160 RON KAPPUS MILFORD NJ 1644 56 M 19 50-59 7:21:49.38 14:32/M
161 KIMBERLI KWIATEK MILL HALL PA 1665 58 F 4 50-59 7:23:30.59 14:35/M
162 PAUL DAVEY LANCASTER PA 1570 35 M 47 30-39 7:23:39.37 14:36/M
163 SHAUGHN BRAUN LOCK HAVEN PA 1529 36 M 48 30-39 7:24:25.67 14:37/M
164 DANA MUNGER EDINBORO PA 1710 42 M 53 40-49 7:24:47.88 14:38/M
165 ROB WAEGER COLUMBUS OH 1784 40 M 54 40-49 7:25:16.43 14:39/M
166 RONALD ROSS MEDINA OH 1741 57 M 20 50-59 7:25:46.81 14:40/M
167 AMANDA BARBER LANCASTER PA 1516 28 F 4 20-29 7:26:41.32 14:42/M
168 PETER BARBER LANCASTER PA 1517 48 M 55 40-49 7:26:41.67 14:42/M
169 JAMES MINER DRYDEN NY 1704 67 M 3 60-99 7:27:14.42 14:43/M
170 MICHAEL SMITH LOCKWOOD NY 1762 38 M 49 30-39 7:27:14.92 14:43/M
171 AUTUMN WOOD WINDBER PA 1799 28 F 5 20-29 7:27:45.31 14:44/M
172 CRAIG ECKENRODE BEDFORD PA 1580 51 M 21 50-59 7:27:45.43 14:44/M
173 JULIEN DELANGE PITTSBURGH PA 1571 33 M 50 30-39 7:28:06.92 14:44/M
174 KEVIN GRAY GERMANTOWN MD 1612 44 M 56 40-49 7:28:10.77 14:45/M
175 BENJAMIN OAKES ELMIRA NY 1719 38 M 51 30-39 7:28:52.43 14:46/M
176 ZACH GEIPLE YORK PA 1602 33 M 52 30-39 7:29:19.89 14:47/M
177 DANIELLE BARNEY LOCK HAVEN PA 1519 40 F 8 40-49 7:30:09.23 14:48/M
178 JAMES TERRIBILINI LOCKWOOD NY 1778 32 M 53 30-39 7:30:55.63 14:50/M
179 KIRAN KOONS WEST CHESTER PA 1659 42 F 9 40-49 7:30:58.67 14:50/M
180 LAURA BOWMAN CONESTOGA PA 1528 22 F 6 20-29 7:31:22.86 14:51/M
181 GARY BOWMAN CONESTOGA PA 1527 50 M 22 50-59 7:33:04.93 14:54/M
182 BRYAN SLOTTERBACH QUAKERTOWN PA 1760 42 M 57 40-49 7:33:14.18 14:55/M
183 JACK BLANCHARD CATONSVILLE MD 1521 45 M 58 40-49 7:33:41.26 14:55/M
184 ADAM PETERSON TITUSVILLE PA 1727 34 M 54 30-39 7:33:46.14 14:56/M
185 MIKE BREST ELLICOTT CITY MD 1530 30 M 55 30-39 7:33:48.79 14:56/M
186 JAMES ARTHUR GIBSONIA PA 1506 42 M 59 40-49 7:33:54.44 14:56/M
187 TOM HAWKINS NEW PALTZ NY 1621 49 M 60 40-49 7:34:49.13 14:58/M
188 LUCAS DURIG NEW CASTLE PA 1578 34 M 56 30-39 7:34:54.40 14:58/M
189 STEVE SCHWANGER EPHRATA PA 1754 46 M 61 40-49 7:37:28.98 15:03/M
190 ROBERT GUSZTAW WIND GAP PA 1615 58 M 23 50-59 7:37:48.68 15:04/M
191 JAMIE CLARK CAMP HILL PA 1552 41 M 62 40-49 7:39:44.94 15:07/M
192 JENNIFER LINGFORD PHILADELPHIA PA 1678 32 F 12 30-39 7:39:51.69 15:08/M
193 BRENT RICE BINGHAMTON NY 1736 38 M 57 30-39 7:41:34.50 15:11/M
194 PAUL ENCARNACION BRUNSWICK MD 1583 55 M 24 50-59 7:42:04.57 15:12/M
195 GILBERT GRAY GREENBELT MD 1611 54 M 25 50-59 7:42:04.58 15:12/M
196 JEFF FIOLEK HARPERS FERRY WV 1589 49 M 63 40-49 7:42:04.70 15:12/M
197 CATARINA MANNEY DANVILLE PA 1687 27 F 7 20-29 7:42:37.45 15:13/M
198 FRANCESCA MAHALAK JERSEY SHORE PA 1685 40 F 10 40-49 7:42:53.38 15:14/M
199 ELIAS KENNEDY LINDEN PA 1649 34 M 58 30-39 7:43:16.92 15:14/M
200 JOSEPH SMAIL COLUMBIA MD 1761 42 M 64 40-49 7:45:19.82 15:18/M
 
Place Name City Bib No Age Gender Age Group Total Time Pace
201 TIMOTHY LEHMAN NESCOPECK PA 1673 42 M 65 40-49 7:46:11.41 15:20/M
202 JEREMIAH BAISLEY HONEOYE FALLS NY 1511 18 M 2 1-19 7:53:15.47 15:34/M
203 JIM WEIL ROSELLE IL 1790 47 M 66 40-49 7:54:17.22 15:36/M
204 ED CHURCHILL DOVER NJ 1550 43 M 67 40-49 7:55:56.39 15:39/M
205 KEVIN CLAIRE WOBURN MA 1551 48 M 68 40-49 7:56:16.71 15:40/M
206 DAVID KOBEY EASTON PA 1655 38 M 59 30-39 7:56:22.71 15:40/M
207 MICHAEL WOMELSDORF ETTERS PA 1798 30 M 60 30-39 7:56:36.41 15:41/M
208 BRIAN JOLY PITTSBURGH PA 1640 57 M 26 50-59 7:56:45.90 15:41/M
209 AARON WIGHTMAN CORNING NY 1794 41 M 69 40-49 7:57:51.22 15:43/M
210 JULIUS GARCIA RESTON VA 1598 56 M 27 50-59 7:58:17.68 15:44/M
211 AMY ORTNER EXTON PA 1722 47 F 11 40-49 7:58:29.86 15:44/M
212 JIM HENNIGAN HARPERS FERRY WV 1624 40 M 70 40-49 7:58:59.65 15:45/M
213 SEAN CONLIN NEW COLUMBIA PA 1557 46 M 71 40-49 8:05:31.85 15:58/M
214 JESSICA BRUNDIGE RAEFORD NC 1535 38 F 13 30-39 8:08:19.73 16:04/M
215 JOHN WEAVER JR ALTOONA PA 1789 41 M 72 40-49 8:08:40.23 16:04/M
216 JONATHAN WILSON SOMERSET NJ 1796 40 M 73 40-49 8:10:46.30 16:09/M
217 DANIEL MCCASLIN JULIAN PA 1692 43 M 74 40-49 8:11:38.46 16:10/M
218 ALAN BURGESS WAVERLY NY 1540 35 M 61 30-39 8:12:55.49 16:13/M
219 KEITH HEARN ELIZABETHTOWN PA 1622 39 M 62 30-39 8:13:04.91 16:13/M
220 DENNIS NITKA RUMSON NJ 1715 45 M 75 40-49 8:13:16.99 16:14/M
221 SAM WACHSMAN LANCASTER PA 1783 49 M 76 40-49 8:15:34.74 16:18/M
222 NEIL HUNSINGER MOUNTAIN TOP PA 1634 40 M 77 40-49 8:16:57.49 16:21/M
223 DEREK STEVENS PITTSBURGH PA 1770 41 M 78 40-49 8:17:21.24 16:22/M
224 STEPHANIE BALES SUTTON ON 1514 35 F 14 30-39 8:23:17.56 16:33/M
225 STEVEN GOLD GLEN BURNIE MD 1605 39 M 63 30-39 8:24:12.76 16:35/M
226 BILL MCCUE CENTER VALLEY PA 1693 43 M 79 40-49 8:30:49.76 16:48/M
227 LAURIE REINHART COOPERSBURG PA 1734 43 F 12 40-49 8:30:52.76 16:48/M
228 CRAIG BAISLEY HONEOYE FALLS NY 1510 45 M 80 40-49 8:31:09.51 16:49/M
229 ANGELA JOWANOWITCH HELLAM PA 1642 40 F 13 40-49 8:35:11.47 16:57/M
230 MERANDA PIERCE MOUNT JOY PA 1728 41 F 14 40-49 8:41:57.78 17:10/M
231 AUSTIN SEDICUM QUAKERTOWN PA 1755 48 M 81 40-49 8:42:19.78 17:11/M
232 JOHN WARRICK BETHEL PARK PA 1787 66 M 4 60-99 8:43:39.20 17:14/M
233 JUSTIN LANA LITITZ PA 1666 33 M 64 30-39 8:44:17.60 17:15/M
234 CALEB NOLEN PHILADELPHIA PA 1717 30 M 65 30-39 8:44:49.27 17:16/M
235 STEVEN NEELY BELLEFONTE PA 1712 56 M 28 50-59 8:45:22.41 17:17/M
236 PETE KENNEDY STATEN ISLAND NY 1651 38 M 66 30-39 8:47:20.17 17:21/M
237 TIM SCHLITZER ALLENTOWN NJ 1750 54 M 29 50-59 8:49:50.76 17:26/M
238 CHRIS BONANTI FAIRVIEW PA 1524 43 M 82 40-49 8:56:41.20 17:39/M
239 LUKAS MILLER GIRARD PA 1701 22 M 16 20-29 8:56:41.39 17:39/M
240 ABRAHAM ROVANSEK PORT MATILDA PA 1742 19 M 3 1-19 9:00:27.71 17:47/M
241 RON ROVANSEK PORT MATILDA PA 1743 48 M 83 40-49 9:00:28.30 17:47/M
242 JASON LANG RIDGWAY PA 1668 43 M 84 40-49 9:02:20.81 17:50/M
243 JOSHUA BROCK STATE COLLEGE PA 1531 45 M 85 40-49 9:02:20.82 17:50/M
244 JASON LLOYD WATERFORD PA 1681 44 M 86 40-49 9:03:05.45 17:52/M
245 JIM NYE BELLEFONTE PA 1718 32 M 67 30-39 9:04:50.65 17:55/M
246 TOM MANGAN PITTSBURGH PA 1686 49 M 87 40-49 9:05:27.61 17:57/M
247 CHRISTOPHER HENDERSON TORONTO ON 1623 54 M 30 50-59 9:10:45.83 18:07/M
248 CHRIS MCPEAKE TORONTO ON 1695 48 M 88 40-49 9:10:50.49 18:07/M
249 KEN FURMAN GLEN ARM MD 1596 54 M 31 50-59 9:18:46.77 18:23/M
250 NESTOR MOLINA NEW YORK NY 1706 38 M 68 30-39 9:18:48.33 18:23/M
251 JIM DEMSKO WEST LAWN PA 1572 43 M 89 40-49 9:23:07.33 18:31/M
252 SCOTT UNDERCOFLER PORT ALLEGANY PA 1779 48 M 90 40-49 9:29:35.24 18:44/M
253 ED CUSHING RUMSON NJ 1566 52 M 32 50-59 9:31:11.24 18:47/M
254 KATIE RAEZER NEWBURG PA 1731 47 F 15 40-49 9:47:31.13 19:20/M
255 SHON REPMAN HANOVER PA 1735 47 M 91 40-49 9:47:35.56 19:20/M
256 JEFF HOLBROOK CORNING NY 1629 53 M 33 50-59 9:52:40.37 19:30/M
257 BOB BODKIN HELLERTOWN PA 1522 48 M 92 40-49 9:56:35.63 19:37/M
258 MICHAEL POTTER GREENWOOD IN 1730 41 M 93 40-49 10:19:03.41 20:22/M